Observation data for Dozier on 07/19/2019      Previous  Date       Current Mesonet Observations  Soil Data  Daily Summary Page  Observations in Plain Language
KDO1 190500Z 15007KT 30/19 A2988 RMK A01 T02950190  RH  053%=      5-min Rain = 0
KDO1 190501Z 14009KT 30/19 A2988 RMK A01 T02950190  RH  053%=      5-min Rain = 0
KDO1 190502Z 15008KT 29/19 A2988 RMK A01 T02940190  RH  053%=      5-min Rain = 0
KDO1 190503Z 15007KT 30/19 A2988 RMK A01 T02950190  RH  053%=      5-min Rain = 0
KDO1 190504Z 15009KT 30/19 A2988 RMK A01 T02950190  RH  053%=      5-min Rain = 0
KDO1 190505Z 15008KT 30/19 A2988 RMK A01 T02950190  RH  053%=      5-min Rain = 0
KDO1 190506Z 15008KT 30/19 A2988 RMK A01 T02950190  RH  053%=      5-min Rain = 0
KDO1 190507Z 15010KT 30/19 A2988 RMK A01 T02950189  RH  053%=      5-min Rain = 0
KDO1 190508Z 15008KT 30/19 A2988 RMK A01 T02950190  RH  053%=      5-min Rain = 0
KDO1 190509Z 14008KT 30/19 A2988 RMK A01 T02950190  RH  053%=      5-min Rain = 0
KDO1 190510Z 14006KT 30/19 A2988 RMK A01 T02950190  RH  053%=      5-min Rain = 0
KDO1 190511Z 14006KT 30/19 A2988 RMK A01 T02950190  RH  053%=      5-min Rain = 0
KDO1 190512Z 14006KT 29/19 A2988 RMK A01 T02940190  RH  054%=      5-min Rain = 0
KDO1 190513Z 14008KT 29/19 A2988 RMK A01 T02930190  RH  054%=      5-min Rain = 0
KDO1 190514Z 15008KT 29/19 A2988 RMK A01 T02920190  RH  054%=      5-min Rain = 0
KDO1 190515Z 14008KT 29/19 A2988 RMK A01 T02930190  RH  054%=      5-min Rain = 0
KDO1 190516Z 14008KT 29/19 A2988 RMK A01 T02920191  RH  054%=      5-min Rain = 0
KDO1 190517Z 15007KT 29/19 A2988 RMK A01 T02920191  RH  054%=      5-min Rain = 0
KDO1 190518Z 15007KT 29/19 A2988 RMK A01 T02920191  RH  055%=      5-min Rain = 0
KDO1 190519Z 14008KT 29/19 A2988 RMK A01 T02910191  RH  055%=      5-min Rain = 0
KDO1 190520Z 14009KT 29/19 A2988 RMK A01 T02910191  RH  055%=      5-min Rain = 0
KDO1 190521Z 14008KT 29/19 A2988 RMK A01 T02910191  RH  055%=      5-min Rain = 0
KDO1 190522Z 15007KT 29/19 A2988 RMK A01 T02910191  RH  055%=      5-min Rain = 0
KDO1 190523Z 14007KT 29/19 A2988 RMK A01 T02910191  RH  055%=      5-min Rain = 0
KDO1 190524Z 15008KT 29/19 A2988 RMK A01 T02910191  RH  055%=      5-min Rain = 0
KDO1 190525Z 14008KT 29/19 A2988 RMK A01 T02910192  RH  055%=      5-min Rain = 0
KDO1 190526Z 14007KT 29/19 A2988 RMK A01 T02910191  RH  055%=      5-min Rain = 0
KDO1 190527Z 15007KT 29/19 A2988 RMK A01 T02900191  RH  055%=      5-min Rain = 0
KDO1 190528Z 15007KT 29/19 A2988 RMK A01 T02900191  RH  055%=      5-min Rain = 0
KDO1 190529Z 14007KT 29/19 A2988 RMK A01 T02900192  RH  055%=      5-min Rain = 0
KDO1 190530Z 14006KT 29/19 A2988 RMK A01 T02900192  RH  056%=      5-min Rain = 0
KDO1 190531Z 15008KT 29/19 A2988 RMK A01 T02890192  RH  056%=      5-min Rain = 0
KDO1 190532Z 15008KT 29/19 A2988 RMK A01 T02890192  RH  056%=      5-min Rain = 0
KDO1 190533Z 15008KT 29/19 A2988 RMK A01 T02890192  RH  056%=      5-min Rain = 0
KDO1 190534Z 14009KT 29/19 A2988 RMK A01 T02890192  RH  056%=      5-min Rain = 0
KDO1 190535Z 15010KT 29/19 A2988 RMK A01 T02890192  RH  056%=      5-min Rain = 0
KDO1 190536Z 15007KT 29/19 A2989 RMK A01 T02890192  RH  056%=      5-min Rain = 0
KDO1 190537Z 15007KT 29/19 A2989 RMK A01 T02890192  RH  056%=      5-min Rain = 0
KDO1 190538Z 15010KT 29/19 A2989 RMK A01 T02890192  RH  056%=      5-min Rain = 0
KDO1 190539Z 15009KT 29/19 A2989 RMK A01 T02880192  RH  056%=      5-min Rain = 0
KDO1 190540Z 15010KT 29/19 A2989 RMK A01 T02890192  RH  056%=      5-min Rain = 0
KDO1 190541Z 15010KT 29/19 A2989 RMK A01 T02880192  RH  056%=      5-min Rain = 0
KDO1 190542Z 15009KT 29/19 A2989 RMK A01 T02890192  RH  056%=      5-min Rain = 0
KDO1 190543Z 15009KT 29/19 A2989 RMK A01 T02890192  RH  056%=      5-min Rain = 0
KDO1 190544Z 15008KT 29/19 A2989 RMK A01 T02890192  RH  056%=      5-min Rain = 0
KDO1 190545Z 15009KT 29/19 A2989 RMK A01 T02890192  RH  056%=      5-min Rain = 0
KDO1 190546Z 15009KT 29/19 A2989 RMK A01 T02880192  RH  056%=      5-min Rain = 0
KDO1 190547Z 15009KT 29/19 A2989 RMK A01 T02880192  RH  056%=      5-min Rain = 0
KDO1 190548Z 15008KT 29/19 A2989 RMK A01 T02880193  RH  056%=      5-min Rain = 0
KDO1 190549Z 15009KT 29/19 A2989 RMK A01 T02880193  RH  056%=      5-min Rain = 0
KDO1 190550Z 15009KT 29/19 A2989 RMK A01 T02880193  RH  056%=      5-min Rain = 0
KDO1 190551Z 15009KT 29/19 A2989 RMK A01 T02870193  RH  056%=      5-min Rain = 0
KDO1 190552Z 15010KT 29/19 A2989 RMK A01 T02880193  RH  057%=      5-min Rain = 0
KDO1 190553Z 15009KT 29/19 A2989 RMK A01 T02880193  RH  056%=      5-min Rain = 0
KDO1 190554Z 15007KT 29/19 A2989 RMK A01 T02880193  RH  056%=      5-min Rain = 0
KDO1 190555Z 15009KT 29/19 A2989 RMK A01 T02870192  RH  056%=      5-min Rain = 0
KDO1 190556Z 15009KT 29/19 A2989 RMK A01 T02870192  RH  057%=      5-min Rain = 0
KDO1 190557Z 15008KT 29/19 A2989 RMK A01 T02870193  RH  057%=      5-min Rain = 0
KDO1 190558Z 15009KT 29/19 A2989 RMK A01 T02870192  RH  057%=      5-min Rain = 0
KDO1 190559Z 15006KT 29/19 A2989 RMK A01 T02870192  RH  057%=      5-min Rain = 0
KDO1 190600Z 15009KT 29/19 A2989 RMK A01 T02860192  RH  057%=      5-min Rain = 0
KDO1 190601Z 15008KT 29/19 A2989 RMK A01 T02860192  RH  057%=      5-min Rain = 0
KDO1 190602Z 15008KT 29/19 A2989 RMK A01 T02860192  RH  057%=      5-min Rain = 0
KDO1 190603Z 15007KT 29/19 A2989 RMK A01 T02860192  RH  057%=      5-min Rain = 0
KDO1 190604Z 15008KT 29/19 A2989 RMK A01 T02860193  RH  057%=      5-min Rain = 0
KDO1 190605Z 16008KT 29/19 A2989 RMK A01 T02860192  RH  057%=      5-min Rain = 0
KDO1 190606Z 16009KT 29/19 A2989 RMK A01 T02860192  RH  057%=      5-min Rain = 0
KDO1 190607Z 16008KT 29/19 A2989 RMK A01 T02860192  RH  057%=      5-min Rain = 0
KDO1 190608Z 16009KT 29/19 A2989 RMK A01 T02850192  RH  057%=      5-min Rain = 0
KDO1 190609Z 15007KT 29/19 A2989 RMK A01 T02860192  RH  057%=      5-min Rain = 0
KDO1 190610Z 16009KT 29/19 A2989 RMK A01 T02860192  RH  057%=      5-min Rain = 0
KDO1 190611Z 16008KT 29/19 A2989 RMK A01 T02860192  RH  057%=      5-min Rain = 0
KDO1 190612Z 16007KT 29/19 A2989 RMK A01 T02850192  RH  057%=      5-min Rain = 0
KDO1 190613Z 15008KT 29/19 A2989 RMK A01 T02850192  RH  057%=      5-min Rain = 0
KDO1 190614Z 15007KT 29/19 A2989 RMK A01 T02850192  RH  057%=      5-min Rain = 0
KDO1 190615Z 16008KT 29/19 A2989 RMK A01 T02850192  RH  057%=      5-min Rain = 0
KDO1 190616Z 15008KT 28/19 A2989 RMK A01 T02840192  RH  057%=      5-min Rain = 0
KDO1 190617Z 15008KT 28/19 A2989 RMK A01 T02840191  RH  057%=      5-min Rain = 0
KDO1 190618Z 16008KT 28/19 A2989 RMK A01 T02840191  RH  057%=      5-min Rain = 0
KDO1 190619Z 15008KT 28/19 A2989 RMK A01 T02840191  RH  057%=      5-min Rain = 0
KDO1 190620Z 16008KT 28/19 A2989 RMK A01 T02840191  RH  057%=      5-min Rain = 0
KDO1 190621Z 15008KT 28/19 A2989 RMK A01 T02840191  RH  057%=      5-min Rain = 0
KDO1 190622Z 15008KT 28/19 A2989 RMK A01 T02840190  RH  057%=      5-min Rain = 0
KDO1 190623Z 16008KT 28/19 A2989 RMK A01 T02840191  RH  057%=      5-min Rain = 0
KDO1 190624Z 15008KT 28/19 A2989 RMK A01 T02840191  RH  057%=      5-min Rain = 0
KDO1 190625Z 15008KT 28/19 A2989 RMK A01 T02840191  RH  057%=      5-min Rain = 0
KDO1 190626Z 16008KT 28/19 A2989 RMK A01 T02840190  RH  057%=      5-min Rain = 0
KDO1 190627Z 16007KT 28/19 A2989 RMK A01 T02840191  RH  057%=      5-min Rain = 0
KDO1 190628Z 15009KT 28/19 A2989 RMK A01 T02840191  RH  057%=      5-min Rain = 0
KDO1 190629Z 16008KT 28/19 A2989 RMK A01 T02840191  RH  057%=      5-min Rain = 0
KDO1 190630Z 15008KT 28/19 A2989 RMK A01 T02840190  RH  057%=      5-min Rain = 0
KDO1 190631Z 15008KT 28/19 A2989 RMK A01 T02840190  RH  057%=      5-min Rain = 0
KDO1 190632Z 16008KT 28/19 A2989 RMK A01 T02840191  RH  057%=      5-min Rain = 0
KDO1 190633Z 16007KT 28/19 A2989 RMK A01 T02840190  RH  057%=      5-min Rain = 0
KDO1 190634Z 15008KT 28/19 A2989 RMK A01 T02840190  RH  057%=      5-min Rain = 0
KDO1 190635Z 15007KT 28/19 A2989 RMK A01 T02830190  RH  057%=      5-min Rain = 0
KDO1 190636Z 15008KT 28/19 A2989 RMK A01 T02830190  RH  057%=      5-min Rain = 0
KDO1 190637Z 16009KT 28/19 A2989 RMK A01 T02830190  RH  057%=      5-min Rain = 0
KDO1 190638Z 16008KT 28/19 A2989 RMK A01 T02830190  RH  057%=      5-min Rain = 0
KDO1 190639Z 15006KT 28/19 A2989 RMK A01 T02830189  RH  057%=      5-min Rain = 0
KDO1 190640Z 16008KT 28/19 A2989 RMK A01 T02830189  RH  057%=      5-min Rain = 0
KDO1 190641Z 16007KT 28/19 A2989 RMK A01 T02830189  RH  057%=      5-min Rain = 0
KDO1 190642Z 16007KT 28/19 A2989 RMK A01 T02830189  RH  057%=      5-min Rain = 0
KDO1 190643Z 16008KT 28/19 A2989 RMK A01 T02820189  RH  057%=      5-min Rain = 0
KDO1 190644Z 15008KT 28/19 A2989 RMK A01 T02820189  RH  057%=      5-min Rain = 0
KDO1 190645Z 16008KT 28/19 A2989 RMK A01 T02820189  RH  057%=      5-min Rain = 0
KDO1 190646Z 16007KT 28/19 A2989 RMK A01 T02820189  RH  057%=      5-min Rain = 0
KDO1 190647Z 16007KT 28/19 A2989 RMK A01 T02820188  RH  057%=      5-min Rain = 0
KDO1 190648Z 16009KT 28/19 A2989 RMK A01 T02820188  RH  057%=      5-min Rain = 0
KDO1 190649Z 15008KT 28/19 A2989 RMK A01 T02820188  RH  057%=      5-min Rain = 0
KDO1 190650Z 15008KT 28/19 A2989 RMK A01 T02820188  RH  057%=      5-min Rain = 0
KDO1 190651Z 16009KT 28/19 A2989 RMK A01 T02820188  RH  057%=      5-min Rain = 0
KDO1 190652Z 16007KT 28/19 A2989 RMK A01 T02820187  RH  056%=      5-min Rain = 0
KDO1 190653Z 16007KT 28/19 A2989 RMK A01 T02830188  RH  056%=      5-min Rain = 0
KDO1 190654Z 15008KT 28/19 A2989 RMK A01 T02830188  RH  056%=      5-min Rain = 0
KDO1 190655Z 16008KT 28/19 A2989 RMK A01 T02820188  RH  056%=      5-min Rain = 0
KDO1 190656Z 15009KT 28/19 A2989 RMK A01 T02830188  RH  056%=      5-min Rain = 0
KDO1 190657Z 15008KT 28/19 A2989 RMK A01 T02820188  RH  056%=      5-min Rain = 0
KDO1 190658Z 15007KT 28/19 A2989 RMK A01 T02820188  RH  056%=      5-min Rain = 0
KDO1 190659Z 16007KT 28/19 A2989 RMK A01 T02820187  RH  057%=      5-min Rain = 0
KDO1 190700Z 15008KT 28/19 A2989 RMK A01 T02810187  RH  057%=      5-min Rain = 0
KDO1 190701Z 15009KT 28/19 A2989 RMK A01 T02810187  RH  057%=      5-min Rain = 0
KDO1 190702Z 16007KT 28/19 A2989 RMK A01 T02810187  RH  057%=      5-min Rain = 0
KDO1 190703Z 15008KT 28/19 A2989 RMK A01 T02810187  RH  057%=      5-min Rain = 0
KDO1 190704Z 15008KT 28/19 A2989 RMK A01 T02810187  RH  057%=      5-min Rain = 0
KDO1 190705Z 16008KT 28/19 A2989 RMK A01 T02810187  RH  057%=      5-min Rain = 0
KDO1 190706Z 16008KT 28/19 A2989 RMK A01 T02800187  RH  057%=      5-min Rain = 0
KDO1 190707Z 15008KT 28/19 A2989 RMK A01 T02800187  RH  057%=      5-min Rain = 0
KDO1 190708Z 16008KT 28/19 A2989 RMK A01 T02800186  RH  057%=      5-min Rain = 0
KDO1 190709Z 16007KT 28/19 A2989 RMK A01 T02800186  RH  057%=      5-min Rain = 0
KDO1 190710Z 16006KT 28/19 A2989 RMK A01 T02800186  RH  057%=      5-min Rain = 0
KDO1 190711Z 16007KT 28/19 A2989 RMK A01 T02790186  RH  057%=      5-min Rain = 0
KDO1 190712Z 16007KT 28/19 A2989 RMK A01 T02790186  RH  057%=      5-min Rain = 0
KDO1 190713Z 16007KT 28/19 A2989 RMK A01 T02790186  RH  057%=      5-min Rain = 0
KDO1 190714Z 16007KT 28/19 A2989 RMK A01 T02790186  RH  057%=      5-min Rain = 0
KDO1 190715Z 16008KT 28/19 A2989 RMK A01 T02790186  RH  057%=      5-min Rain = 0
KDO1 190716Z 16007KT 28/19 A2989 RMK A01 T02780185  RH  057%=      5-min Rain = 0
KDO1 190717Z 16008KT 28/19 A2989 RMK A01 T02790186  RH  057%=      5-min Rain = 0
KDO1 190718Z 16006KT 28/19 A2989 RMK A01 T02780185  RH  057%=      5-min Rain = 0
KDO1 190719Z 16007KT 28/19 A2989 RMK A01 T02780185  RH  057%=      5-min Rain = 0
KDO1 190720Z 16007KT 28/19 A2989 RMK A01 T02780185  RH  057%=      5-min Rain = 0
KDO1 190721Z 15007KT 28/19 A2989 RMK A01 T02780185  RH  057%=      5-min Rain = 0
KDO1 190722Z 16006KT 28/19 A2989 RMK A01 T02780185  RH  057%=      5-min Rain = 0
KDO1 190723Z 16006KT 28/19 A2989 RMK A01 T02770185  RH  057%=      5-min Rain = 0
KDO1 190724Z 16006KT 28/19 A2989 RMK A01 T02770185  RH  057%=      5-min Rain = 0
KDO1 190725Z 16008KT 28/18 A2989 RMK A01 T02770184  RH  057%=      5-min Rain = 0
KDO1 190726Z 16006KT 28/18 A2989 RMK A01 T02770184  RH  057%=      5-min Rain = 0
KDO1 190727Z 16007KT 28/18 A2989 RMK A01 T02770184  RH  057%=      5-min Rain = 0
KDO1 190728Z 16006KT 28/18 A2989 RMK A01 T02770184  RH  057%=      5-min Rain = 0
KDO1 190729Z 16006KT 28/18 A2989 RMK A01 T02760184  RH  057%=      5-min Rain = 0
KDO1 190730Z 15005KT 28/18 A2989 RMK A01 T02760184  RH  057%=      5-min Rain = 0
KDO1 190731Z 15006KT 28/18 A2989 RMK A01 T02750184  RH  057%=      5-min Rain = 0
KDO1 190732Z 15006KT 28/18 A2989 RMK A01 T02750184  RH  058%=      5-min Rain = 0
KDO1 190733Z 15005KT 28/18 A2989 RMK A01 T02750184  RH  058%=      5-min Rain = 0
KDO1 190734Z 15005KT 27/18 A2989 RMK A01 T02740184  RH  058%=      5-min Rain = 0
KDO1 190735Z 15006KT 27/18 A2989 RMK A01 T02730184  RH  058%=      5-min Rain = 0
KDO1 190736Z 15005KT 27/18 A2989 RMK A01 T02730184  RH  058%=      5-min Rain = 0
KDO1 190737Z 15005KT 27/18 A2989 RMK A01 T02720184  RH  058%=      5-min Rain = 0
KDO1 190738Z 15005KT 27/18 A2989 RMK A01 T02720184  RH  059%=      5-min Rain = 0
KDO1 190739Z 15006KT 27/18 A2989 RMK A01 T02710184  RH  059%=      5-min Rain = 0
KDO1 190740Z 15005KT 27/18 A2989 RMK A01 T02710184  RH  059%=      5-min Rain = 0
KDO1 190741Z 15005KT 27/18 A2989 RMK A01 T02710184  RH  059%=      5-min Rain = 0
KDO1 190742Z 15005KT 27/18 A2989 RMK A01 T02710184  RH  059%=      5-min Rain = 0
KDO1 190743Z 15005KT 27/18 A2989 RMK A01 T02700184  RH  059%=      5-min Rain = 0
KDO1 190744Z 15005KT 27/18 A2989 RMK A01 T02700184  RH  059%=      5-min Rain = 0
KDO1 190745Z 15005KT 27/18 A2989 RMK A01 T02700184  RH  059%=      5-min Rain = 0
KDO1 190746Z 14005KT 27/18 A2989 RMK A01 T02700184  RH  060%=      5-min Rain = 0
KDO1 190747Z 15005KT 27/18 A2989 RMK A01 T02690184  RH  060%=      5-min Rain = 0
KDO1 190748Z 15005KT 27/18 A2989 RMK A01 T02680184  RH  060%=      5-min Rain = 0
KDO1 190749Z 15005KT 27/18 A2989 RMK A01 T02680184  RH  060%=      5-min Rain = 0
KDO1 190750Z 15005KT 27/18 A2989 RMK A01 T02670184  RH  060%=      5-min Rain = 0
KDO1 190751Z 15006KT 27/18 A2989 RMK A01 T02680184  RH  060%=      5-min Rain = 0
KDO1 190752Z 15005KT 27/18 A2989 RMK A01 T02670183  RH  060%=      5-min Rain = 0
KDO1 190753Z 15005KT 27/18 A2989 RMK A01 T02670183  RH  060%=      5-min Rain = 0
KDO1 190754Z 15006KT 27/18 A2989 RMK A01 T02670183  RH  060%=      5-min Rain = 0
KDO1 190755Z 15006KT 27/18 A2989 RMK A01 T02670184  RH  060%=      5-min Rain = 0
KDO1 190756Z 15005KT 27/18 A2989 RMK A01 T02670184  RH  060%=      5-min Rain = 0
KDO1 190757Z 15005KT 27/18 A2989 RMK A01 T02670183  RH  060%=      5-min Rain = 0
KDO1 190758Z 15005KT 27/18 A2989 RMK A01 T02660184  RH  060%=      5-min Rain = 0
KDO1 190759Z 15005KT 27/18 A2989 RMK A01 T02660183  RH  061%=      5-min Rain = 0
KDO1 190800Z 15005KT 27/18 A2989 RMK A01 T02650183  RH  061%=      5-min Rain = 0
KDO1 190801Z 15006KT 27/18 A2989 RMK A01 T02650183  RH  061%=      5-min Rain = 0
KDO1 190802Z 15006KT 27/18 A2989 RMK A01 T02650183  RH  061%=      5-min Rain = 0
KDO1 190803Z 15005KT 27/18 A2989 RMK A01 T02650183  RH  061%=      5-min Rain = 0
KDO1 190804Z 16005KT 27/18 A2989 RMK A01 T02650183  RH  061%=      5-min Rain = 0
KDO1 190805Z 15006KT 27/18 A2989 RMK A01 T02650183  RH  061%=      5-min Rain = 0
KDO1 190806Z 15005KT 26/18 A2989 RMK A01 T02640183  RH  061%=      5-min Rain = 0
KDO1 190807Z 16005KT 26/18 A2989 RMK A01 T02640183  RH  061%=      5-min Rain = 0
KDO1 190808Z 15005KT 26/18 A2989 RMK A01 T02630183  RH  061%=      5-min Rain = 0
KDO1 190809Z 15005KT 26/18 A2989 RMK A01 T02630183  RH  061%=      5-min Rain = 0
KDO1 190810Z 15005KT 26/18 A2989 RMK A01 T02630183  RH  061%=      5-min Rain = 0
KDO1 190811Z 15006KT 26/18 A2989 RMK A01 T02620182  RH  062%=      5-min Rain = 0
KDO1 190812Z 15005KT 26/18 A2989 RMK A01 T02620183  RH  062%=      5-min Rain = 0
KDO1 190813Z 15005KT 26/18 A2989 RMK A01 T02620183  RH  062%=      5-min Rain = 0
KDO1 190814Z 15005KT 26/18 A2989 RMK A01 T02620182  RH  062%=      5-min Rain = 0
KDO1 190815Z 15006KT 26/18 A2989 RMK A01 T02620182  RH  062%=      5-min Rain = 0
KDO1 190816Z 15006KT 26/18 A2989 RMK A01 T02620182  RH  062%=      5-min Rain = 0
KDO1 190817Z 15006KT 26/18 A2989 RMK A01 T02610182  RH  062%=      5-min Rain = 0
KDO1 190818Z 15005KT 26/18 A2989 RMK A01 T02610182  RH  062%=      5-min Rain = 0
KDO1 190819Z 15005KT 26/18 A2989 RMK A01 T02620182  RH  062%=      5-min Rain = 0
KDO1 190820Z 15005KT 26/18 A2989 RMK A01 T02610182  RH  062%=      5-min Rain = 0
KDO1 190821Z 16005KT 26/18 A2989 RMK A01 T02610182  RH  062%=      5-min Rain = 0
KDO1 190822Z 16005KT 26/18 A2989 RMK A01 T02610182  RH  062%=      5-min Rain = 0
KDO1 190823Z 15005KT 26/18 A2989 RMK A01 T02610182  RH  062%=      5-min Rain = 0
KDO1 190824Z 16005KT 26/18 A2989 RMK A01 T02600182  RH  062%=      5-min Rain = 0
KDO1 190825Z 16005KT 26/18 A2989 RMK A01 T02600182  RH  062%=      5-min Rain = 0
KDO1 190826Z 16005KT 26/18 A2989 RMK A01 T02600182  RH  062%=      5-min Rain = 0
KDO1 190827Z 16005KT 26/18 A2989 RMK A01 T02590181  RH  062%=      5-min Rain = 0
KDO1 190828Z 16005KT 26/18 A2989 RMK A01 T02590181  RH  062%=      5-min Rain = 0
KDO1 190829Z 16005KT 26/18 A2989 RMK A01 T02600182  RH  062%=      5-min Rain = 0
KDO1 190830Z 16005KT 26/18 A2989 RMK A01 T02590181  RH  062%=      5-min Rain = 0
KDO1 190831Z 16005KT 26/18 A2989 RMK A01 T02590181  RH  062%=      5-min Rain = 0
KDO1 190832Z 16005KT 26/18 A2989 RMK A01 T02590181  RH  062%=      5-min Rain = 0
KDO1 190833Z 16005KT 26/18 A2989 RMK A01 T02580181  RH  062%=      5-min Rain = 0
KDO1 190834Z 16005KT 26/18 A2989 RMK A01 T02580181  RH  063%=      5-min Rain = 0
KDO1 190835Z 16005KT 26/18 A2989 RMK A01 T02580181  RH  063%=      5-min Rain = 0
KDO1 190836Z 16005KT 26/18 A2989 RMK A01 T02570181  RH  063%=      5-min Rain = 0
KDO1 190837Z 16005KT 26/18 A2989 RMK A01 T02580181  RH  062%=      5-min Rain = 0
KDO1 190838Z 16006KT 26/18 A2989 RMK A01 T02580181  RH  062%=      5-min Rain = 0
KDO1 190839Z 16005KT 26/18 A2989 RMK A01 T02580181  RH  063%=      5-min Rain = 0
KDO1 190840Z 16005KT 26/18 A2989 RMK A01 T02580181  RH  063%=      5-min Rain = 0
KDO1 190841Z 16005KT 26/18 A2989 RMK A01 T02570181  RH  063%=      5-min Rain = 0
KDO1 190842Z 16005KT 26/18 A2989 RMK A01 T02570181  RH  063%=      5-min Rain = 0
KDO1 190843Z 17005KT 26/18 A2989 RMK A01 T02570180  RH  062%=      5-min Rain = 0
KDO1 190844Z 16005KT 26/18 A2989 RMK A01 T02570180  RH  062%=      5-min Rain = 0
KDO1 190845Z 16005KT 26/18 A2989 RMK A01 T02570180  RH  063%=      5-min Rain = 0
KDO1 190846Z 16006KT 26/18 A2989 RMK A01 T02560180  RH  063%=      5-min Rain = 0
KDO1 190847Z 16005KT 26/18 A2989 RMK A01 T02560180  RH  063%=      5-min Rain = 0
KDO1 190848Z 16006KT 26/18 A2989 RMK A01 T02560180  RH  063%=      5-min Rain = 0
KDO1 190849Z 17005KT 26/18 A2989 RMK A01 T02560180  RH  063%=      5-min Rain = 0
KDO1 190850Z 16006KT 26/18 A2989 RMK A01 T02560179  RH  063%=      5-min Rain = 0
KDO1 190851Z 17006KT 26/18 A2989 RMK A01 T02560179  RH  063%=      5-min Rain = 0
KDO1 190852Z 16006KT 26/18 A2989 RMK A01 T02550179  RH  063%=      5-min Rain = 0
KDO1 190853Z 16006KT 26/18 A2989 RMK A01 T02550179  RH  063%=      5-min Rain = 0
KDO1 190854Z 16006KT 26/18 A2989 RMK A01 T02550179  RH  063%=      5-min Rain = 0
KDO1 190855Z 16006KT 26/18 A2989 RMK A01 T02550179  RH  062%=      5-min Rain = 0
KDO1 190856Z 16005KT 26/18 A2989 RMK A01 T02550179  RH  062%=      5-min Rain = 0
KDO1 190857Z 16006KT 26/18 A2989 RMK A01 T02560179  RH  062%=      5-min Rain = 0
KDO1 190858Z 16006KT 26/18 A2989 RMK A01 T02560179  RH  063%=      5-min Rain = 0
KDO1 190859Z 16006KT 26/18 A2989 RMK A01 T02550179  RH  063%=      5-min Rain = 0
KDO1 190900Z 16006KT 26/18 A2989 RMK A01 T02550179  RH  063%=      5-min Rain = 0
KDO1 190901Z 16006KT 25/18 A2989 RMK A01 T02540178  RH  063%=      5-min Rain = 0
KDO1 190902Z 16006KT 25/18 A2989 RMK A01 T02540178  RH  063%=      5-min Rain = 0
KDO1 190903Z 16006KT 25/18 A2989 RMK A01 T02540178  RH  063%=      5-min Rain = 0
KDO1 190904Z 16005KT 25/18 A2989 RMK A01 T02540178  RH  063%=      5-min Rain = 0
KDO1 190905Z 16006KT 25/18 A2989 RMK A01 T02540178  RH  063%=      5-min Rain = 0
KDO1 190906Z 16005KT 25/18 A2989 RMK A01 T02540178  RH  063%=      5-min Rain = 0
KDO1 190907Z 16005KT 25/18 A2989 RMK A01 T02540178  RH  063%=      5-min Rain = 0
KDO1 190908Z 16006KT 25/18 A2989 RMK A01 T02540177  RH  063%=      5-min Rain = 0
KDO1 190909Z 16006KT 25/18 A2989 RMK A01 T02540177  RH  062%=      5-min Rain = 0
KDO1 190910Z 16006KT 25/18 A2989 RMK A01 T02540177  RH  062%=      5-min Rain = 0
KDO1 190911Z 16006KT 25/18 A2989 RMK A01 T02540177  RH  062%=      5-min Rain = 0
KDO1 190912Z 16006KT 25/18 A2989 RMK A01 T02540177  RH  062%=      5-min Rain = 0
KDO1 190913Z 16005KT 25/18 A2989 RMK A01 T02540177  RH  062%=      5-min Rain = 0
KDO1 190914Z 16005KT 25/18 A2989 RMK A01 T02540177  RH  062%=      5-min Rain = 0
KDO1 190915Z 16005KT 25/18 A2989 RMK A01 T02540177  RH  062%=      5-min Rain = 0
KDO1 190916Z 16005KT 25/18 A2989 RMK A01 T02540177  RH  063%=      5-min Rain = 0
KDO1 190917Z 16005KT 25/18 A2989 RMK A01 T02540177  RH  063%=      5-min Rain = 0
KDO1 190918Z 16005KT 25/18 A2989 RMK A01 T02530177  RH  063%=      5-min Rain = 0
KDO1 190919Z 16006KT 25/18 A2989 RMK A01 T02530177  RH  063%=      5-min Rain = 0
KDO1 190920Z 16006KT 25/18 A2989 RMK A01 T02530177  RH  063%=      5-min Rain = 0
KDO1 190921Z 16005KT 25/18 A2989 RMK A01 T02520177  RH  063%=      5-min Rain = 0
KDO1 190922Z 16006KT 25/18 A2989 RMK A01 T02520177  RH  063%=      5-min Rain = 0
KDO1 190923Z 16006KT 25/18 A2989 RMK A01 T02520177  RH  063%=      5-min Rain = 0
KDO1 190924Z 16006KT 25/18 A2989 RMK A01 T02520177  RH  063%=      5-min Rain = 0
KDO1 190925Z 16006KT 25/18 A2989 RMK A01 T02520177  RH  063%=      5-min Rain = 0
KDO1 190926Z 16005KT 25/18 A2989 RMK A01 T02510177  RH  063%=      5-min Rain = 0
KDO1 190927Z 16006KT 25/18 A2989 RMK A01 T02510177  RH  063%=      5-min Rain = 0
KDO1 190928Z 16006KT 25/18 A2989 RMK A01 T02500177  RH  064%=      5-min Rain = 0
KDO1 190929Z 16006KT 25/18 A2989 RMK A01 T02500177  RH  064%=      5-min Rain = 0
KDO1 190930Z 17006KT 25/18 A2989 RMK A01 T02500177  RH  064%=      5-min Rain = 0
KDO1 190931Z 16006KT 25/18 A2989 RMK A01 T02490176  RH  064%=      5-min Rain = 0
KDO1 190932Z 16006KT 25/18 A2989 RMK A01 T02490176  RH  064%=      5-min Rain = 0
KDO1 190933Z 16006KT 25/18 A2989 RMK A01 T02500177  RH  064%=      5-min Rain = 0
KDO1 190934Z 16006KT 25/18 A2989 RMK A01 T02500176  RH  064%=      5-min Rain = 0
KDO1 190935Z 16006KT 25/18 A2989 RMK A01 T02500176  RH  064%=      5-min Rain = 0
KDO1 190936Z 16006KT 25/18 A2989 RMK A01 T02490176  RH  064%=      5-min Rain = 0
KDO1 190937Z 16006KT 25/18 A2989 RMK A01 T02490176  RH  064%=      5-min Rain = 0
KDO1 190938Z 16006KT 25/18 A2989 RMK A01 T02490176  RH  064%=      5-min Rain = 0
KDO1 190939Z 17005KT 25/18 A2989 RMK A01 T02500176  RH  064%=      5-min Rain = 0
KDO1 190940Z 16006KT 25/18 A2989 RMK A01 T02500176  RH  064%=      5-min Rain = 0
KDO1 190941Z 16006KT 25/18 A2989 RMK A01 T02490176  RH  064%=      5-min Rain = 0
KDO1 190942Z 16006KT 25/18 A2989 RMK A01 T02500176  RH  064%=      5-min Rain = 0
KDO1 190943Z 16006KT 25/18 A2989 RMK A01 T02490176  RH  064%=      5-min Rain = 0
KDO1 190944Z 16006KT 25/18 A2989 RMK A01 T02490176  RH  064%=      5-min Rain = 0
KDO1 190945Z 16005KT 25/18 A2989 RMK A01 T02490176  RH  064%=      5-min Rain = 0
KDO1 190946Z 16006KT 25/18 A2989 RMK A01 T02490176  RH  064%=      5-min Rain = 0
KDO1 190947Z 16006KT 25/18 A2989 RMK A01 T02490176  RH  063%=      5-min Rain = 0
KDO1 190948Z 16005KT 25/18 A2989 RMK A01 T02490176  RH  064%=      5-min Rain = 0
KDO1 190949Z 16005KT 25/18 A2989 RMK A01 T02490176  RH  064%=      5-min Rain = 0
KDO1 190950Z 16006KT 25/18 A2989 RMK A01 T02490175  RH  064%=      5-min Rain = 0
KDO1 190951Z 16006KT 25/18 A2989 RMK A01 T02490176  RH  064%=      5-min Rain = 0
KDO1 190952Z 16006KT 25/18 A2989 RMK A01 T02490176  RH  064%=      5-min Rain = 0
KDO1 190953Z 16006KT 25/18 A2989 RMK A01 T02480176  RH  064%=      5-min Rain = 0
KDO1 190954Z 17005KT 25/18 A2989 RMK A01 T02480175  RH  064%=      5-min Rain = 0
KDO1 190955Z 16006KT 25/18 A2989 RMK A01 T02480175  RH  064%=      5-min Rain = 0
KDO1 190956Z 16005KT 25/18 A2989 RMK A01 T02470175  RH  064%=      5-min Rain = 0
KDO1 190957Z 16006KT 25/18 A2989 RMK A01 T02480176  RH  064%=      5-min Rain = 0
KDO1 190958Z 16005KT 25/18 A2989 RMK A01 T02480176  RH  064%=      5-min Rain = 0
KDO1 190959Z 16006KT 25/18 A2989 RMK A01 T02480176  RH  064%=      5-min Rain = 0
KDO1 191000Z 16005KT 25/18 A2989 RMK A01 T02470176  RH  064%=      5-min Rain = 0
KDO1 191001Z 16006KT 25/18 A2989 RMK A01 T02470176  RH  064%=      5-min Rain = 0
KDO1 191002Z 16005KT 25/18 A2989 RMK A01 T02470175  RH  064%=      5-min Rain = 0
KDO1 191003Z 16005KT 25/18 A2989 RMK A01 T02470175  RH  064%=      5-min Rain = 0
KDO1 191004Z 16005KT 25/18 A2989 RMK A01 T02470175  RH  065%=      5-min Rain = 0
KDO1 191005Z 16005KT 25/18 A2989 RMK A01 T02460175  RH  065%=      5-min Rain = 0
KDO1 191006Z 16005KT 25/18 A2989 RMK A01 T02460175  RH  065%=      5-min Rain = 0
KDO1 191007Z 17005KT 25/18 A2989 RMK A01 T02460175  RH  065%=      5-min Rain = 0
KDO1 191008Z 16005KT 25/18 A2989 RMK A01 T02460176  RH  065%=      5-min Rain = 0
KDO1 191009Z 16005KT 25/18 A2989 RMK A01 T02460176  RH  065%=      5-min Rain = 0
KDO1 191010Z 16005KT 25/18 A2989 RMK A01 T02450175  RH  065%=      5-min Rain = 0
KDO1 191011Z 16005KT 25/18 A2989 RMK A01 T02450175  RH  065%=      5-min Rain = 0
KDO1 191012Z 17005KT 25/18 A2989 RMK A01 T02450175  RH  065%=      5-min Rain = 0
KDO1 191013Z 17005KT 25/18 A2989 RMK A01 T02450176  RH  065%=      5-min Rain = 0
KDO1 191014Z 16005KT 24/18 A2989 RMK A01 T02440176  RH  066%=      5-min Rain = 0
KDO1 191015Z 17005KT 24/18 A2989 RMK A01 T02430175  RH  066%=      5-min Rain = 0
KDO1 191016Z 17005KT 24/18 A2989 RMK A01 T02430176  RH  066%=      5-min Rain = 0
KDO1 191017Z 17005KT 24/18 A2989 RMK A01 T02420176  RH  066%=      5-min Rain = 0
KDO1 191018Z 17005KT 24/18 A2989 RMK A01 T02420176  RH  066%=      5-min Rain = 0
KDO1 191019Z 17005KT 24/18 A2989 RMK A01 T02420176  RH  067%=      5-min Rain = 0
KDO1 191020Z 17005KT 24/18 A2989 RMK A01 T02410176  RH  067%=      5-min Rain = 0
KDO1 191021Z 17005KT 24/18 A2989 RMK A01 T02410176  RH  067%=      5-min Rain = 0
KDO1 191022Z 16005KT 24/18 A2989 RMK A01 T02410176  RH  067%=      5-min Rain = 0
KDO1 191023Z 16006KT 24/18 A2989 RMK A01 T02400175  RH  067%=      5-min Rain = 0
KDO1 191024Z 16006KT 24/18 A2989 RMK A01 T02400175  RH  067%=      5-min Rain = 0
KDO1 191025Z 16005KT 24/18 A2989 RMK A01 T02400175  RH  067%=      5-min Rain = 0
KDO1 191026Z 16006KT 24/18 A2989 RMK A01 T02400175  RH  067%=      5-min Rain = 0
KDO1 191027Z 16005KT 24/18 A299 RMK A01 T02410175  RH  067%=      5-min Rain = 0
KDO1 191028Z 16005KT 24/18 A299 RMK A01 T02410175  RH  067%=      5-min Rain = 0
KDO1 191029Z 16005KT 24/18 A299 RMK A01 T02410175  RH  067%=      5-min Rain = 0
KDO1 191030Z 16005KT 24/18 A299 RMK A01 T02410175  RH  067%=      5-min Rain = 0
KDO1 191031Z 16005KT 24/18 A299 RMK A01 T02410175  RH  067%=      5-min Rain = 0
KDO1 191032Z 16005KT 24/18 A299 RMK A01 T02410175  RH  067%=      5-min Rain = 0
KDO1 191033Z 16005KT 24/18 A299 RMK A01 T02410175  RH  067%=      5-min Rain = 0
KDO1 191034Z 16005KT 24/18 A299 RMK A01 T02410175  RH  067%=      5-min Rain = 0
KDO1 191035Z 16005KT 24/18 A299 RMK A01 T02410175  RH  067%=      5-min Rain = 0
KDO1 191036Z 16005KT 24/18 A299 RMK A01 T02410175  RH  067%=      5-min Rain = 0
KDO1 191037Z 16005KT 24/18 A299 RMK A01 T02410175  RH  067%=      5-min Rain = 0
KDO1 191038Z 16005KT 24/18 A299 RMK A01 T02410175  RH  067%=      5-min Rain = 0
KDO1 191039Z 16005KT 24/18 A299 RMK A01 T02400175  RH  067%=      5-min Rain = 0
KDO1 191040Z 16005KT 24/18 A299 RMK A01 T02400175  RH  067%=      5-min Rain = 0
KDO1 191041Z 16005KT 24/18 A299 RMK A01 T02400175  RH  067%=      5-min Rain = 0
KDO1 191042Z 16005KT 24/18 A299 RMK A01 T02390175  RH  067%=      5-min Rain = 0
KDO1 191043Z 16005KT 24/18 A299 RMK A01 T02390175  RH  067%=      5-min Rain = 0
KDO1 191044Z 16005KT 24/17 A299 RMK A01 T02390174  RH  067%=      5-min Rain = 0
KDO1 191045Z 16005KT 24/18 A299 RMK A01 T02400175  RH  067%=      5-min Rain = 0
KDO1 191046Z 16005KT 24/18 A299 RMK A01 T02390175  RH  067%=      5-min Rain = 0
KDO1 191047Z 16005KT 24/17 A299 RMK A01 T02390174  RH  067%=      5-min Rain = 0
KDO1 191048Z 16005KT 24/17 A299 RMK A01 T02390174  RH  067%=      5-min Rain = 0
KDO1 191049Z 16005KT 24/17 A299 RMK A01 T02390174  RH  067%=      5-min Rain = 0
KDO1 191050Z 16005KT 24/18 A299 RMK A01 T02400175  RH  067%=      5-min Rain = 0
KDO1 191051Z 16005KT 24/17 A299 RMK A01 T02390174  RH  067%=      5-min Rain = 0
KDO1 191052Z 17005KT 24/17 A299 RMK A01 T02390174  RH  067%=      5-min Rain = 0
KDO1 191053Z 17005KT 24/17 A299 RMK A01 T02390174  RH  067%=      5-min Rain = 0
KDO1 191054Z 17005KT 24/17 A299 RMK A01 T02390174  RH  067%=      5-min Rain = 0
KDO1 191055Z 17005KT 24/17 A299 RMK A01 T02390174  RH  067%=      5-min Rain = 0
KDO1 191056Z 17005KT 24/17 A299 RMK A01 T02380174  RH  067%=      5-min Rain = 0
KDO1 191057Z 17005KT 24/17 A299 RMK A01 T02380174  RH  067%=      5-min Rain = 0
KDO1 191058Z 17005KT 24/17 A299 RMK A01 T02380174  RH  068%=      5-min Rain = 0
KDO1 191059Z 18004KT 24/17 A299 RMK A01 T02380174  RH  068%=      5-min Rain = 0
KDO1 191100Z 18005KT 24/17 A299 RMK A01 T02370174  RH  068%=      5-min Rain = 0
KDO1 191101Z 18004KT 24/17 A299 RMK A01 T02370174  RH  068%=      5-min Rain = 0
KDO1 191102Z 18004KT 24/17 A299 RMK A01 T02360174  RH  068%=      5-min Rain = 0
KDO1 191103Z 18004KT 24/17 A299 RMK A01 T02360174  RH  068%=      5-min Rain = 0
KDO1 191104Z 17004KT 24/17 A299 RMK A01 T02350174  RH  068%=      5-min Rain = 0
KDO1 191105Z 18004KT 24/17 A299 RMK A01 T02350174  RH  069%=      5-min Rain = 0
KDO1 191106Z 17004KT 24/17 A299 RMK A01 T02350174  RH  069%=      5-min Rain = 0
KDO1 191107Z 17004KT 23/17 A299 RMK A01 T02340174  RH  069%=      5-min Rain = 0
KDO1 191108Z 17005KT 23/17 A299 RMK A01 T02340174  RH  069%=      5-min Rain = 0
KDO1 191109Z 17005KT 23/17 A299 RMK A01 T02340174  RH  069%=      5-min Rain = 0
KDO1 191110Z 18004KT 23/17 A299 RMK A01 T02340174  RH  069%=      5-min Rain = 0
KDO1 191111Z 17004KT 23/17 A299 RMK A01 T02340174  RH  069%=      5-min Rain = 0
KDO1 191112Z 17004KT 23/17 A299 RMK A01 T02340174  RH  069%=      5-min Rain = 0
KDO1 191113Z 17004KT 23/17 A299 RMK A01 T02330174  RH  069%=      5-min Rain = 0
KDO1 191114Z 18004KT 23/17 A299 RMK A01 T02330174  RH  069%=      5-min Rain = 0
KDO1 191115Z 18004KT 23/17 A299 RMK A01 T02330174  RH  069%=      5-min Rain = 0
KDO1 191116Z 18004KT 23/17 A299 RMK A01 T02320174  RH  069%=      5-min Rain = 0
KDO1 191117Z 18004KT 23/17 A299 RMK A01 T02320173  RH  070%=      5-min Rain = 0
KDO1 191118Z 19004KT 23/17 A299 RMK A01 T02320174  RH  070%=      5-min Rain = 0
KDO1 191119Z 19004KT 23/17 A299 RMK A01 T02310174  RH  070%=      5-min Rain = 0
KDO1 191120Z 18004KT 23/17 A299 RMK A01 T02310174  RH  070%=      5-min Rain = 0
KDO1 191121Z 18004KT 23/17 A299 RMK A01 T02310174  RH  070%=      5-min Rain = 0
KDO1 191122Z 18004KT 23/17 A299 RMK A01 T02310173  RH  070%=      5-min Rain = 0
KDO1 191123Z 18003KT 23/17 A299 RMK A01 T02300173  RH  070%=      5-min Rain = 0
KDO1 191124Z 18004KT 23/17 A299 RMK A01 T02310174  RH  070%=      5-min Rain = 0
KDO1 191125Z 18003KT 23/17 A299 RMK A01 T02300173  RH  070%=      5-min Rain = 0
KDO1 191126Z 18004KT 23/17 A2991 RMK A01 T02300173  RH  070%=      5-min Rain = 0
KDO1 191127Z 18004KT 23/17 A2991 RMK A01 T02300173  RH  070%=      5-min Rain = 0
KDO1 191128Z 19003KT 23/17 A2991 RMK A01 T02300173  RH  070%=      5-min Rain = 0
KDO1 191129Z 19003KT 23/17 A2991 RMK A01 T02300174  RH  070%=      5-min Rain = 0
KDO1 191130Z 18004KT 23/17 A2991 RMK A01 T02300173  RH  070%=      5-min Rain = 0
KDO1 191131Z 18004KT 23/17 A2991 RMK A01 T02300173  RH  070%=      5-min Rain = 0
KDO1 191132Z 18003KT 23/17 A2991 RMK A01 T02300173  RH  070%=      5-min Rain = 0
KDO1 191133Z 18003KT 23/17 A2991 RMK A01 T02300173  RH  071%=      5-min Rain = 0
KDO1 191134Z 18003KT 23/17 A2991 RMK A01 T02290174  RH  071%=      5-min Rain = 0
KDO1 191135Z 18004KT 23/17 A2991 RMK A01 T02290173  RH  071%=      5-min Rain = 0
KDO1 191136Z 18004KT 23/17 A2991 RMK A01 T02280173  RH  071%=      5-min Rain = 0
KDO1 191137Z 18004KT 23/17 A2991 RMK A01 T02280173  RH  071%=      5-min Rain = 0
KDO1 191138Z 18004KT 23/17 A2991 RMK A01 T02280173  RH  071%=      5-min Rain = 0
KDO1 191139Z 17004KT 23/17 A2991 RMK A01 T02280173  RH  071%=      5-min Rain = 0
KDO1 191140Z 18004KT 23/17 A2991 RMK A01 T02280174  RH  072%=      5-min Rain = 0
KDO1 191141Z 18005KT 23/17 A2991 RMK A01 T02270173  RH  072%=      5-min Rain = 0
KDO1 191142Z 18005KT 23/17 A2991 RMK A01 T02270173  RH  072%=      5-min Rain = 0
KDO1 191143Z 17005KT 23/17 A2991 RMK A01 T02270173  RH  072%=      5-min Rain = 0
KDO1 191144Z 18005KT 23/17 A2991 RMK A01 T02270174  RH  072%=      5-min Rain = 0
KDO1 191145Z 18005KT 23/17 A2991 RMK A01 T02260173  RH  072%=      5-min Rain = 0
KDO1 191146Z 17005KT 23/17 A2991 RMK A01 T02270174  RH  072%=      5-min Rain = 0
KDO1 191147Z 17006KT 23/17 A2991 RMK A01 T02260173  RH  072%=      5-min Rain = 0
KDO1 191148Z 17005KT 23/17 A2991 RMK A01 T02260173  RH  072%=      5-min Rain = 0
KDO1 191149Z 17006KT 23/17 A2991 RMK A01 T02260173  RH  072%=      5-min Rain = 0
KDO1 191150Z 17005KT 23/17 A2991 RMK A01 T02260173  RH  072%=      5-min Rain = 0
KDO1 191151Z 17005KT 23/17 A2991 RMK A01 T02260173  RH  072%=      5-min Rain = 0
KDO1 191152Z 16005KT 23/17 A2991 RMK A01 T02270174  RH  072%=      5-min Rain = 0
KDO1 191153Z 16005KT 23/17 A2991 RMK A01 T02270173  RH  072%=      5-min Rain = 0
KDO1 191154Z 17006KT 23/17 A2991 RMK A01 T02270173  RH  071%=      5-min Rain = 0
KDO1 191155Z 16005KT 23/17 A2991 RMK A01 T02280173  RH  071%=      5-min Rain = 0
KDO1 191156Z 17005KT 23/17 A2991 RMK A01 T02290173  RH  071%=      5-min Rain = 0
KDO1 191157Z 17006KT 23/17 A2991 RMK A01 T02290173  RH  071%=      5-min Rain = 0
KDO1 191158Z 17006KT 23/17 A2991 RMK A01 T02290173  RH  070%=      5-min Rain = 0
KDO1 191159Z 17006KT 23/17 A2991 RMK A01 T02300173  RH  070%=      5-min Rain = 0
KDO1 191200Z 17006KT 23/17 A2991 RMK A01 T02310173  RH  070%=      5-min Rain = 0
KDO1 191201Z 16005KT 23/17 A2991 RMK A01 T02310173  RH  070%=      5-min Rain = 0
KDO1 191202Z 17006KT 23/17 A2991 RMK A01 T02320173  RH  070%=      5-min Rain = 0
KDO1 191203Z 17006KT 23/17 A2991 RMK A01 T02320172  RH  069%=      5-min Rain = 0
KDO1 191204Z 17006KT 23/17 A2991 RMK A01 T02320173  RH  069%=      5-min Rain = 0
KDO1 191205Z 17005KT 23/17 A2991 RMK A01 T02330173  RH  069%=      5-min Rain = 0
KDO1 191206Z 17005KT 23/17 A2991 RMK A01 T02330173  RH  069%=      5-min Rain = 0
KDO1 191207Z 17006KT 23/17 A2991 RMK A01 T02330173  RH  069%=      5-min Rain = 0
KDO1 191208Z 17005KT 23/17 A2991 RMK A01 T02330173  RH  069%=      5-min Rain = 0
KDO1 191209Z 18006KT 23/17 A2991 RMK A01 T02330173  RH  069%=      5-min Rain = 0
KDO1 191210Z 18006KT 23/17 A2991 RMK A01 T02330173  RH  069%=      5-min Rain = 0
KDO1 191211Z 18006KT 23/17 A2991 RMK A01 T02330173  RH  069%=      5-min Rain = 0
KDO1 191212Z 17006KT 23/17 A2991 RMK A01 T02330173  RH  069%=      5-min Rain = 0
KDO1 191213Z 17006KT 23/17 A2991 RMK A01 T02330173  RH  069%=      5-min Rain = 0
KDO1 191214Z 17006KT 23/17 A2991 RMK A01 T02340173  RH  069%=      5-min Rain = 0
KDO1 191215Z 17006KT 23/17 A2991 RMK A01 T02340173  RH  069%=      5-min Rain = 0
KDO1 191216Z 17006KT 23/17 A2991 RMK A01 T02340173  RH  069%=      5-min Rain = 0
KDO1 191217Z 17006KT 23/17 A2991 RMK A01 T02340173  RH  068%=      5-min Rain = 0
KDO1 191218Z 16006KT 24/17 A2991 RMK A01 T02350173  RH  068%=      5-min Rain = 0
KDO1 191219Z 17006KT 24/17 A2991 RMK A01 T02350173  RH  068%=      5-min Rain = 0
KDO1 191220Z 17006KT 24/17 A2991 RMK A01 T02360173  RH  068%=      5-min Rain = 0
KDO1 191221Z 16005KT 24/17 A2991 RMK A01 T02360173  RH  068%=      5-min Rain = 0
KDO1 191222Z 16006KT 24/17 A2991 RMK A01 T02370173  RH  067%=      5-min Rain = 0
KDO1 191223Z 17006KT 24/17 A2991 RMK A01 T02370173  RH  067%=      5-min Rain = 0
KDO1 191224Z 16006KT 24/17 A2991 RMK A01 T02380173  RH  067%=      5-min Rain = 0
KDO1 191225Z 17006KT 24/17 A2991 RMK A01 T02390173  RH  067%=      5-min Rain = 0
KDO1 191226Z 16005KT 24/17 A2991 RMK A01 T02390173  RH  067%=      5-min Rain = 0
KDO1 191227Z 16006KT 24/17 A2991 RMK A01 T02400173  RH  066%=      5-min Rain = 0
KDO1 191228Z 16005KT 24/17 A2991 RMK A01 T02400173  RH  066%=      5-min Rain = 0
KDO1 191229Z 16006KT 24/17 A2991 RMK A01 T02410173  RH  066%=      5-min Rain = 0
KDO1 191230Z 16005KT 24/17 A2991 RMK A01 T02420173  RH  066%=      5-min Rain = 0
KDO1 191231Z 16005KT 24/17 A2991 RMK A01 T02420173  RH  065%=      5-min Rain = 0
KDO1 191232Z 17005KT 24/17 A2991 RMK A01 T02430174  RH  065%=      5-min Rain = 0
KDO1 191233Z 16005KT 24/17 A2991 RMK A01 T02440173  RH  065%=      5-min Rain = 0
KDO1 191234Z 16005KT 24/17 A2991 RMK A01 T02440174  RH  065%=      5-min Rain = 0
KDO1 191235Z 16006KT 25/17 A2991 RMK A01 T02450173  RH  064%=      5-min Rain = 0
KDO1 191236Z 16005KT 25/17 A2991 RMK A01 T02460174  RH  064%=      5-min Rain = 0
KDO1 191237Z 16006KT 25/17 A2991 RMK A01 T02460173  RH  064%=      5-min Rain = 0
KDO1 191238Z 16006KT 25/17 A2991 RMK A01 T02470173  RH  063%=      5-min Rain = 0
KDO1 191239Z 16006KT 25/17 A2991 RMK A01 T02480173  RH  063%=      5-min Rain = 0
KDO1 191240Z 15007KT 25/17 A2991 RMK A01 T02480172  RH  063%=      5-min Rain = 0
KDO1 191241Z 16007KT 25/17 A2991 RMK A01 T02490172  RH  062%=      5-min Rain = 0
KDO1 191242Z 16007KT 25/17 A2991 RMK A01 T02500173  RH  062%=      5-min Rain = 0
KDO1 191243Z 15007KT 25/17 A2991 RMK A01 T02510172  RH  062%=      5-min Rain = 0
KDO1 191244Z 16006KT 25/17 A2991 RMK A01 T02510173  RH  062%=      5-min Rain = 0
KDO1 191245Z 15006KT 25/17 A2991 RMK A01 T02520173  RH  062%=      5-min Rain = 0
KDO1 191246Z 16006KT 25/17 A2991 RMK A01 T02530174  RH  062%=      5-min Rain = 0
KDO1 191247Z 16007KT 25/17 A2991 RMK A01 T02530172  RH  061%=      5-min Rain = 0
KDO1 191248Z 16007KT 25/17 A2991 RMK A01 T02530173  RH  061%=      5-min Rain = 0
KDO1 191249Z 16007KT 25/17 A2991 RMK A01 T02530172  RH  061%=      5-min Rain = 0
KDO1 191250Z 16008KT 25/17 A2991 RMK A01 T02540172  RH  060%=      5-min Rain = 0
KDO1 191251Z 16006KT 25/17 A2991 RMK A01 T02540172  RH  060%=      5-min Rain = 0
KDO1 191252Z 15006KT 25/17 A2991 RMK A01 T02540172  RH  060%=      5-min Rain = 0
KDO1 191253Z 16006KT 26/17 A2991 RMK A01 T02550173  RH  060%=      5-min Rain = 0
KDO1 191254Z 15005KT 26/17 A2991 RMK A01 T02550173  RH  060%=      5-min Rain = 0
KDO1 191255Z 15006KT 26/17 A2991 RMK A01 T02560174  RH  060%=      5-min Rain = 0
KDO1 191256Z 15007KT 26/17 A2991 RMK A01 T02570174  RH  060%=      5-min Rain = 0
KDO1 191257Z 15007KT 26/17 A2991 RMK A01 T02570173  RH  059%=      5-min Rain = 0
KDO1 191258Z 16007KT 26/17 A2991 RMK A01 T02580173  RH  059%=      5-min Rain = 0
KDO1 191259Z 17006KT 26/17 A2991 RMK A01 T02580172  RH  059%=      5-min Rain = 0
KDO1 191300Z 16005KT 26/17 A2991 RMK A01 T02580173  RH  059%=      5-min Rain = 0
KDO1 191301Z 16004KT 26/17 A2991 RMK A01 T02580174  RH  060%=      5-min Rain = 0
KDO1 191302Z 16008KT 26/17 A2991 RMK A01 T02590174  RH  059%=      5-min Rain = 0
KDO1 191303Z 16007KT 26/17 A2991 RMK A01 T02600172  RH  058%=      5-min Rain = 0
KDO1 191304Z 17006KT 26/17 A2991 RMK A01 T02590172  RH  058%=      5-min Rain = 0
KDO1 191305Z 16007KT 26/17 A2991 RMK A01 T02600173  RH  059%=      5-min Rain = 0
KDO1 191306Z 16007KT 26/17 A2991 RMK A01 T02600172  RH  058%=      5-min Rain = 0
KDO1 191307Z 17006KT 26/17 A2992 RMK A01 T02610173  RH  058%=      5-min Rain = 0
KDO1 191308Z 17005KT 26/17 A2992 RMK A01 T02620174  RH  059%=      5-min Rain = 0
KDO1 191309Z 16006KT 26/18 A2992 RMK A01 T02630175  RH  058%=      5-min Rain = 0
KDO1 191310Z 16008KT 26/17 A2992 RMK A01 T02640173  RH  057%=      5-min Rain = 0
KDO1 191311Z 17005KT 27/17 A2992 RMK A01 T02650174  RH  057%=      5-min Rain = 0
KDO1 191312Z 16007KT 27/17 A2992 RMK A01 T02650174  RH  057%=      5-min Rain = 0
KDO1 191313Z 16006KT 27/17 A2992 RMK A01 T02660174  RH  057%=      5-min Rain = 0
KDO1 191314Z 17007KT 27/17 A2992 RMK A01 T02670174  RH  057%=      5-min Rain = 0
KDO1 191315Z 17007KT 27/17 A2992 RMK A01 T02670173  RH  056%=      5-min Rain = 0
KDO1 191316Z 17007KT 27/17 A2992 RMK A01 T02670173  RH  056%=      5-min Rain = 0
KDO1 191317Z 17007KT 27/17 A2992 RMK A01 T02670172  RH  056%=      5-min Rain = 0
KDO1 191318Z 17009KT 27/17 A2992 RMK A01 T02670173  RH  056%=      5-min Rain = 0
KDO1 191319Z 17008KT 27/17 A2992 RMK A01 T02670172  RH  056%=      5-min Rain = 0
KDO1 191320Z 16006KT 27/17 A2992 RMK A01 T02670173  RH  056%=      5-min Rain = 0
KDO1 191321Z 16009KT 27/17 A2992 RMK A01 T02670173  RH  056%=      5-min Rain = 0
KDO1 191322Z 17008KT 27/17 A2992 RMK A01 T02680172  RH  056%=      5-min Rain = 0
KDO1 191323Z 17008KT 27/17 A2992 RMK A01 T02680172  RH  056%=      5-min Rain = 0
KDO1 191324Z 17008KT 27/17 A2992 RMK A01 T02690173  RH  056%=      5-min Rain = 0
KDO1 191325Z 17008KT 27/17 A2991 RMK A01 T02690173  RH  056%=      5-min Rain = 0
KDO1 191326Z 16008KT 27/17 A2991 RMK A01 T02690173  RH  056%=      5-min Rain = 0
KDO1 191327Z 16007KT 27/17 A2991 RMK A01 T02690173  RH  056%=      5-min Rain = 0
KDO1 191328Z 17006KT 27/17 A2991 RMK A01 T02690174  RH  056%=      5-min Rain = 0
KDO1 191329Z 17007KT 27/18 A2991 RMK A01 T02710175  RH  056%=      5-min Rain = 0
KDO1 191330Z 18009KT 27/17 A2991 RMK A01 T02720174  RH  055%=      5-min Rain = 0
KDO1 191331Z 17009KT 27/17 A2991 RMK A01 T02720174  RH  055%=      5-min Rain = 0
KDO1 191332Z 17007KT 27/17 A2991 RMK A01 T02720174  RH  055%=      5-min Rain = 0
KDO1 191333Z 17005KT 27/18 A2991 RMK A01 T02710176  RH  056%=      5-min Rain = 0
KDO1 191334Z 17008KT 27/18 A2991 RMK A01 T02730176  RH  055%=      5-min Rain = 0
KDO1 191335Z 18008KT 27/18 A2992 RMK A01 T02730176  RH  055%=      5-min Rain = 0
KDO1 191336Z 17007KT 27/18 A2992 RMK A01 T02740176  RH  055%=      5-min Rain = 0
KDO1 191337Z 17006KT 28/18 A2992 RMK A01 T02750176  RH  055%=      5-min Rain = 0
KDO1 191338Z 17008KT 28/18 A2992 RMK A01 T02750177  RH  055%=      5-min Rain = 0
KDO1 191339Z 18009KT 28/18 A2992 RMK A01 T02760177  RH  055%=      5-min Rain = 0
KDO1 191340Z 18010KT 28/18 A2992 RMK A01 T02770175  RH  054%=      5-min Rain = 0
KDO1 191341Z 18010KT 28/18 A2992 RMK A01 T02770175  RH  054%=      5-min Rain = 0
KDO1 191342Z 17010KT 28/17 A2992 RMK A01 T02770174  RH  054%=      5-min Rain = 0
KDO1 191343Z 17009KT 28/18 A2992 RMK A01 T02770175  RH  054%=      5-min Rain = 0
KDO1 191344Z 18008KT 28/18 A2992 RMK A01 T02780176  RH  054%=      5-min Rain = 0
KDO1 191345Z 19009KT 28/18 A2992 RMK A01 T02790176  RH  054%=      5-min Rain = 0
KDO1 191346Z 17009KT 28/18 A2992 RMK A01 T02790175  RH  053%=      5-min Rain = 0
KDO1 191347Z 18010KT 28/18 A2992 RMK A01 T02800175  RH  053%=      5-min Rain = 0
KDO1 191348Z 18010KT 28/18 A2992 RMK A01 T02800175  RH  053%=      5-min Rain = 0
KDO1 191349Z 18011KT 28/18 A2992 RMK A01 T02810175  RH  052%=      5-min Rain = 0
KDO1 191350Z 19010KT 28/18 A2992 RMK A01 T02810175  RH  053%=      5-min Rain = 0
KDO1 191351Z 18010KT 28/18 A2992 RMK A01 T02810176  RH  053%=      5-min Rain = 0
KDO1 191352Z 17010KT 28/18 A2991 RMK A01 T02810175  RH  053%=      5-min Rain = 0
KDO1 191353Z 18010KT 28/18 A2992 RMK A01 T02810175  RH  052%=      5-min Rain = 0
KDO1 191354Z 19010KT 28/18 A2992 RMK A01 T02820175  RH  052%=      5-min Rain = 0
KDO1 191355Z 19012KT 28/18 A2992 RMK A01 T02830176  RH  052%=      5-min Rain = 0
KDO1 191356Z 18011KT 28/18 A2992 RMK A01 T02830176  RH  052%=      5-min Rain = 0
KDO1 191357Z 18009KT 28/18 A2992 RMK A01 T02830177  RH  053%=      5-min Rain = 0
KDO1 191358Z 18011KT 29/18 A2991 RMK A01 T02850177  RH  052%=      5-min Rain = 0
KDO1 191359Z 20011KT 29/18 A2991 RMK A01 T02860176  RH  051%=      5-min Rain = 0
KDO1 191400Z 19010KT 29/18 A2991 RMK A01 T02860175  RH  051%=      5-min Rain = 0
KDO1 191401Z 19008KT 29/18 A2991 RMK A01 T02860178  RH  052%=      5-min Rain = 0
KDO1 191402Z 18009KT 29/18 A2991 RMK A01 T02860179  RH  052%=      5-min Rain = 0
KDO1 191403Z 18010KT 29/18 A2991 RMK A01 T02880179  RH  052%=      5-min Rain = 0
KDO1 191404Z 18010KT 29/18 A2991 RMK A01 T02880176  RH  051%=      5-min Rain = 0
KDO1 191405Z 18007KT 29/18 A2991 RMK A01 T02880176  RH  051%=      5-min Rain = 0
KDO1 191406Z 19009KT 29/18 A2992 RMK A01 T02880178  RH  051%=      5-min Rain = 0
KDO1 191407Z 18007KT 29/18 A2992 RMK A01 T02900182  RH  052%=      5-min Rain = 0
KDO1 191408Z 18009KT 29/18 A2992 RMK A01 T02930180  RH  051%=      5-min Rain = 0
KDO1 191409Z 18009KT 29/18 A2992 RMK A01 T02940180  RH  050%=      5-min Rain = 0
KDO1 191410Z 20011KT 30/18 A2992 RMK A01 T02950179  RH  050%=      5-min Rain = 0
KDO1 191411Z 20010KT 29/18 A2992 RMK A01 T02940178  RH  050%=      5-min Rain = 0
KDO1 191412Z 19012KT 29/18 A2992 RMK A01 T02940178  RH  050%=      5-min Rain = 0
KDO1 191413Z 20013KT 29/18 A2992 RMK A01 T02920177  RH  050%=      5-min Rain = 0
KDO1 191414Z 19011KT 29/18 A2992 RMK A01 T02920177  RH  050%=      5-min Rain = 0
KDO1 191415Z 19011KT 29/18 A2992 RMK A01 T02920178  RH  050%=      5-min Rain = 0
KDO1 191416Z 19010KT 29/18 A2992 RMK A01 T02920178  RH  050%=      5-min Rain = 0
KDO1 191417Z 20008KT 29/18 A2992 RMK A01 T02930178  RH  050%=      5-min Rain = 0
KDO1 191418Z 19010KT 29/18 A2992 RMK A01 T02940179  RH  050%=      5-min Rain = 0
KDO1 191419Z 20013KT 30/18 A2992 RMK A01 T02950179  RH  050%=      5-min Rain = 0
KDO1 191420Z 19011KT 30/18 A2992 RMK A01 T02950178  RH  049%=      5-min Rain = 0
KDO1 191421Z 19011G16KT 29/18 A2992 RMK A01 T02940179  RH  050%=      5-min Rain = 0
KDO1 191422Z 19013KT 29/18 A2992 RMK A01 T02940177  RH  049%=      5-min Rain = 0
KDO1 191423Z 19011KT 29/18 A2992 RMK A01 T02940177  RH  049%=      5-min Rain = 0
KDO1 191424Z 20011KT 29/18 A2992 RMK A01 T02940177  RH  049%=      5-min Rain = 0
KDO1 191425Z 20009KT 30/18 A2992 RMK A01 T02950178  RH  050%=      5-min Rain = 0
KDO1 191426Z 20008KT 30/18 A2992 RMK A01 T02970181  RH  050%=      5-min Rain = 0
KDO1 191427Z 19012KT 30/18 A2992 RMK A01 T02990181  RH  049%=      5-min Rain = 0
KDO1 191428Z 18011KT 30/18 A2992 RMK A01 T02990180  RH  049%=      5-min Rain = 0
KDO1 191429Z 19013KT 30/18 A2992 RMK A01 T02990180  RH  049%=      5-min Rain = 0
KDO1 191430Z 19011KT 30/18 A2992 RMK A01 T02990179  RH  049%=      5-min Rain = 0
KDO1 191431Z 19011KT 30/18 A2992 RMK A01 T02980179  RH  049%=      5-min Rain = 0
KDO1 191432Z 20011KT 30/18 A2992 RMK A01 T02990179  RH  049%=      5-min Rain = 0
KDO1 191433Z 19008KT 30/18 A2992 RMK A01 T02990180  RH  049%=      5-min Rain = 0
KDO1 191434Z 19008G13KT 30/18 A2992 RMK A01 T03000181  RH  049%=      5-min Rain = 0
KDO1 191435Z 20011KT 30/18 A2992 RMK A01 T03010181  RH  048%=      5-min Rain = 0
KDO1 191436Z 20010KT 30/18 A2992 RMK A01 T03020181  RH  048%=      5-min Rain = 0
KDO1 191437Z 19011KT 30/18 A2991 RMK A01 T03020182  RH  048%=      5-min Rain = 0
KDO1 191438Z 19007KT 30/18 A2991 RMK A01 T03030181  RH  048%=      5-min Rain = 0
KDO1 191439Z 20010KT 30/18 A2991 RMK A01 T03030182  RH  048%=      5-min Rain = 0
KDO1 191440Z 20011KT 30/18 A2991 RMK A01 T03030182  RH  048%=      5-min Rain = 0
KDO1 191441Z 20012KT 30/18 A2991 RMK A01 T03040180  RH  048%=      5-min Rain = 0
KDO1 191442Z 19009KT 30/18 A2991 RMK A01 T03040181  RH  048%=      5-min Rain = 0
KDO1 191443Z 20011KT 30/18 A2991 RMK A01 T03040181  RH  048%=      5-min Rain = 0
KDO1 191444Z 20010KT 31/18 A2991 RMK A01 T03050180  RH  047%=      5-min Rain = 0
KDO1 191445Z 21008G13KT 31/18 A2992 RMK A01 T03060182  RH  048%=      5-min Rain = 0
KDO1 191446Z 19012KT 31/18 A2992 RMK A01 T03080182  RH  047%=      5-min Rain = 0
KDO1 191447Z 20011KT 31/18 A2992 RMK A01 T03080179  RH  046%=      5-min Rain = 0
KDO1 191448Z 20009KT 31/18 A2992 RMK A01 T03070180  RH  047%=      5-min Rain = 0
KDO1 191449Z 20008KT 31/18 A2992 RMK A01 T03070181  RH  047%=      5-min Rain = 0
KDO1 191450Z 20009G15KT 31/18 A2992 RMK A01 T03080183  RH  047%=      5-min Rain = 0
KDO1 191451Z 20012KT 31/18 A2992 RMK A01 T03100181  RH  046%=      5-min Rain = 0
KDO1 191452Z 20011KT 31/18 A2992 RMK A01 T03100179  RH  046%=      5-min Rain = 0
KDO1 191453Z 19013KT 31/18 A2992 RMK A01 T03080181  RH  047%=      5-min Rain = 0
KDO1 191454Z 19011KT 31/18 A2992 RMK A01 T03080181  RH  047%=      5-min Rain = 0
KDO1 191455Z 19011KT 31/18 A2992 RMK A01 T03070181  RH  047%=      5-min Rain = 0
KDO1 191456Z 19013KT 31/18 A2992 RMK A01 T03080182  RH  047%=      5-min Rain = 0
KDO1 191457Z 19012KT 31/18 A2992 RMK A01 T03100181  RH  046%=      5-min Rain = 0
KDO1 191458Z 19012KT 31/18 A2992 RMK A01 T03090181  RH  046%=      5-min Rain = 0
KDO1 191459Z 20010KT 31/18 A2992 RMK A01 T03080181  RH  047%=      5-min Rain = 0
KDO1 191500Z 20008KT 31/18 A2991 RMK A01 T03080181  RH  047%=      5-min Rain = 0
KDO1 191501Z 19011KT 31/18 A2991 RMK A01 T03090184  RH  047%=      5-min Rain = 0
KDO1 191502Z 19011KT 31/18 A2991 RMK A01 T03110183  RH  046%=      5-min Rain = 0
KDO1 191503Z 20010KT 31/18 A2991 RMK A01 T03110182  RH  046%=      5-min Rain = 0
KDO1 191504Z 19012KT 31/18 A2991 RMK A01 T03110182  RH  046%=      5-min Rain = 0
KDO1 191505Z 18010KT 31/18 A2991 RMK A01 T03100183  RH  047%=      5-min Rain = 0
KDO1 191506Z 19013KT 31/18 A2991 RMK A01 T03110182  RH  046%=      5-min Rain = 0
KDO1 191507Z 18011KT 31/18 A2991 RMK A01 T03110182  RH  046%=      5-min Rain = 0
KDO1 191508Z 18011KT 31/18 A2991 RMK A01 T03110183  RH  046%=      5-min Rain = 0
KDO1 191509Z 19011KT 31/18 A2991 RMK A01 T03120184  RH  046%=      5-min Rain = 0
KDO1 191510Z 19012KT 31/18 A2991 RMK A01 T03120183  RH  046%=      5-min Rain = 0
KDO1 191511Z 19012KT 31/18 A2991 RMK A01 T03120183  RH  046%=      5-min Rain = 0
KDO1 191512Z 20009KT 31/18 A2991 RMK A01 T03110183  RH  047%=      5-min Rain = 0
KDO1 191513Z 19011KT 31/18 A2991 RMK A01 T03120184  RH  046%=      5-min Rain = 0
KDO1 191514Z 20010KT 31/18 A2991 RMK A01 T03130184  RH  046%=      5-min Rain = 0
KDO1 191515Z 20010KT 31/18 A2991 RMK A01 T03140184  RH  046%=      5-min Rain = 0
KDO1 191516Z 21009KT 31/18 A2991 RMK A01 T03140183  RH  046%=      5-min Rain = 0
KDO1 191517Z 20007KT 31/19 A2991 RMK A01 T03140185  RH  046%=      5-min Rain = 0
KDO1 191518Z 20008KT 31/19 A2991 RMK A01 T03140186  RH  046%=      5-min Rain = 0
KDO1 191519Z 20009KT 32/19 A2991 RMK A01 T03160186  RH  046%=      5-min Rain = 0
KDO1 191520Z 21009KT 32/19 A2991 RMK A01 T03170186  RH  046%=      5-min Rain = 0
KDO1 191521Z 19008G13KT 32/19 A2991 RMK A01 T03190188  RH  046%=      5-min Rain = 0
KDO1 191522Z 17009KT 32/19 A2991 RMK A01 T03210187  RH  045%=      5-min Rain = 0
KDO1 191523Z 17011G17KT 32/19 A2991 RMK A01 T03220186  RH  045%=      5-min Rain = 0
KDO1 191524Z 18011KT 32/19 A2991 RMK A01 T03210186  RH  045%=      5-min Rain = 0
KDO1 191525Z 17008KT 32/19 A2991 RMK A01 T03190186  RH  045%=      5-min Rain = 0
KDO1 191526Z 17010KT 32/19 A2991 RMK A01 T03190186  RH  045%=      5-min Rain = 0
KDO1 191527Z 17012KT 32/19 A2991 RMK A01 T03210187  RH  045%=      5-min Rain = 0
KDO1 191528Z 18010KT 32/19 A2991 RMK A01 T03220186  RH  044%=      5-min Rain = 0
KDO1 191529Z 18008KT 32/19 A2991 RMK A01 T03210186  RH  045%=      5-min Rain = 0
KDO1 191530Z 17009KT 32/19 A2991 RMK A01 T03200187  RH  045%=      5-min Rain = 0
KDO1 191531Z 19011KT 32/19 A2991 RMK A01 T03210186  RH  045%=      5-min Rain = 0
KDO1 191532Z 19011KT 32/19 A2991 RMK A01 T03200185  RH  045%=      5-min Rain = 0
KDO1 191533Z 19010KT 32/19 A2991 RMK A01 T03190187  RH  045%=      5-min Rain = 0
KDO1 191534Z 18011KT 32/19 A2991 RMK A01 T03190186  RH  045%=      5-min Rain = 0
KDO1 191535Z 18010KT 32/19 A2991 RMK A01 T03200187  RH  045%=      5-min Rain = 0
KDO1 191536Z 19012KT 32/19 A2991 RMK A01 T03220187  RH  045%=      5-min Rain = 0
KDO1 191537Z 19012KT 32/19 A2991 RMK A01 T03220187  RH  045%=      5-min Rain = 0
KDO1 191538Z 19007KT 32/19 A2991 RMK A01 T03220187  RH  045%=      5-min Rain = 0
KDO1 191539Z 17009KT 32/19 A2991 RMK A01 T03240189  RH  045%=      5-min Rain = 0
KDO1 191540Z 16009KT 33/19 A2991 RMK A01 T03260188  RH  044%=      5-min Rain = 0
KDO1 191541Z 17010G16KT 33/19 A2991 RMK A01 T03260190  RH  044%=      5-min Rain = 0
KDO1 191542Z 19012KT 33/19 A2991 RMK A01 T03280187  RH  043%=      5-min Rain = 0
KDO1 191543Z 19010KT 33/19 A2991 RMK A01 T03270187  RH  044%=      5-min Rain = 0
KDO1 191544Z 19006KT 33/19 A2991 RMK A01 T03260187  RH  044%=      5-min Rain = 0
KDO1 191545Z 18008KT 33/19 A2991 RMK A01 T03260189  RH  044%=      5-min Rain = 0
KDO1 191546Z 16007KT 33/19 A2991 RMK A01 T03280190  RH  044%=      5-min Rain = 0
KDO1 191547Z 18009KT 33/19 A2991 RMK A01 T03300190  RH  044%=      5-min Rain = 0
KDO1 191548Z 19010KT 33/19 A2991 RMK A01 T03310189  RH  043%=      5-min Rain = 0
KDO1 191549Z 20010KT 33/19 A2991 RMK A01 T03300191  RH  044%=      5-min Rain = 0
KDO1 191550Z 21009KT 33/19 A2991 RMK A01 T03300189  RH  043%=      5-min Rain = 0
KDO1 191551Z 21008KT 33/19 A2991 RMK A01 T03300189  RH  043%=      5-min Rain = 0
KDO1 191552Z 18009KT 33/19 A2991 RMK A01 T03300190  RH  043%=      5-min Rain = 0
KDO1 191553Z 17010KT 33/19 A2991 RMK A01 T03300189  RH  043%=      5-min Rain = 0
KDO1 191554Z 18010KT 33/19 A2991 RMK A01 T03300187  RH  043%=      5-min Rain = 0
KDO1 191555Z 20007KT 33/19 A2991 RMK A01 T03310189  RH  043%=      5-min Rain = 0
KDO1 191556Z 17009KT 33/19 A2991 RMK A01 T03340191  RH  043%=      5-min Rain = 0
KDO1 191557Z 17010KT 34/19 A2991 RMK A01 T03350189  RH  042%=      5-min Rain = 0
KDO1 191558Z 17007KT 34/19 A2991 RMK A01 T03350189  RH  042%=      5-min Rain = 0
KDO1 191559Z 19010KT 33/19 A2991 RMK A01 T03340190  RH  043%=      5-min Rain = 0
KDO1 191600Z 20012KT 33/19 A2991 RMK A01 T03320189  RH  043%=      5-min Rain = 0
KDO1 191601Z 20010KT 33/19 A2991 RMK A01 T03320189  RH  043%=      5-min Rain = 0
KDO1 191602Z 20011KT 33/19 A2991 RMK A01 T03310188  RH  043%=      5-min Rain = 0
KDO1 191603Z 19007KT 33/19 A2991 RMK A01 T03320188  RH  043%=      5-min Rain = 0
KDO1 191604Z 17011KT 33/19 A2991 RMK A01 T03330189  RH  043%=      5-min Rain = 0
KDO1 191605Z 17011KT 33/19 A2991 RMK A01 T03330189  RH  042%=      5-min Rain = 0
KDO1 191606Z 19009KT 33/19 A2991 RMK A01 T03340190  RH  043%=      5-min Rain = 0
KDO1 191607Z 19007KT 34/19 A2991 RMK A01 T03370193  RH  043%=      5-min Rain = 0
KDO1 191608Z 19010KT 34/19 A2991 RMK A01 T03420194  RH  042%=      5-min Rain = 0
KDO1 191609Z 19009KT 34/19 A2991 RMK A01 T03440191  RH  041%=      5-min Rain = 0
KDO1 191610Z 18007KT 34/19 A2991 RMK A01 T03430191  RH  041%=      5-min Rain = 0
KDO1 191611Z 19011KT 34/19 A2991 RMK A01 T03430191  RH  041%=      5-min Rain = 0
KDO1 191612Z 20009KT 34/19 A299 RMK A01 T03420188  RH  040%=      5-min Rain = 0
KDO1 191613Z 20011KT 34/19 A299 RMK A01 T03410189  RH  041%=      5-min Rain = 0
KDO1 191614Z 20011KT 34/19 A299 RMK A01 T03390190  RH  041%=      5-min Rain = 0
KDO1 191615Z 21010KT 34/19 A2991 RMK A01 T03390186  RH  040%=      5-min Rain = 0
KDO1 191616Z 19011KT 34/19 A299 RMK A01 T03390187  RH  041%=      5-min Rain = 0
KDO1 191617Z 19009KT 34/19 A2991 RMK A01 T03380187  RH  041%=      5-min Rain = 0
KDO1 191618Z 19007KT 34/19 A2991 RMK A01 T03400188  RH  041%=      5-min Rain = 0
KDO1 191619Z 17013KT 34/19 A299 RMK A01 T03420190  RH  041%=      5-min Rain = 0
KDO1 191620Z 18011KT 34/19 A2991 RMK A01 T03430189  RH  040%=      5-min Rain = 0
KDO1 191621Z 18009KT 34/19 A2991 RMK A01 T03440188  RH  040%=      5-min Rain = 0
KDO1 191622Z 18009KT 34/19 A2991 RMK A01 T03430190  RH  040%=      5-min Rain = 0
KDO1 191623Z 18011KT 34/19 A2991 RMK A01 T03440189  RH  040%=      5-min Rain = 0
KDO1 191624Z 18011KT 34/19 A2991 RMK A01 T03440190  RH  040%=      5-min Rain = 0
KDO1 191625Z 18012KT 35/19 A2991 RMK A01 T03460189  RH  040%=      5-min Rain = 0
KDO1 191626Z 19011KT 35/19 A2991 RMK A01 T03470189  RH  039%=      5-min Rain = 0
KDO1 191627Z 20009KT 35/19 A2991 RMK A01 T03470190  RH  040%=      5-min Rain = 0
KDO1 191628Z 19009KT 35/19 A299 RMK A01 T03480189  RH  039%=      5-min Rain = 0
KDO1 191629Z 19013KT 35/19 A299 RMK A01 T03460190  RH  040%=      5-min Rain = 0
KDO1 191630Z 18012KT 35/19 A299 RMK A01 T03460190  RH  040%=      5-min Rain = 0
KDO1 191631Z 17011KT 35/19 A299 RMK A01 T03480187  RH  039%=      5-min Rain = 0
KDO1 191632Z 19012KT 35/19 A299 RMK A01 T03480189  RH  039%=      5-min Rain = 0
KDO1 191633Z 18010KT 35/19 A299 RMK A01 T03470189  RH  039%=      5-min Rain = 0
KDO1 191634Z 20010KT 35/19 A299 RMK A01 T03470189  RH  039%=      5-min Rain = 0
KDO1 191635Z 18010KT 35/19 A299 RMK A01 T03480191  RH  040%=      5-min Rain = 0
KDO1 191636Z 18009KT 35/19 A299 RMK A01 T03500191  RH  039%=      5-min Rain = 0
KDO1 191637Z 16010KT 35/19 A299 RMK A01 T03500191  RH  039%=      5-min Rain = 0
KDO1 191638Z 17010KT 35/19 A299 RMK A01 T03490189  RH  039%=      5-min Rain = 0
KDO1 191639Z 18009KT 35/19 A299 RMK A01 T03490193  RH  040%=      5-min Rain = 0
KDO1 191640Z 18011KT 35/19 A299 RMK A01 T03520191  RH  039%=      5-min Rain = 0
KDO1 191641Z 18012KT 35/19 A299 RMK A01 T03530191  RH  039%=      5-min Rain = 0
KDO1 191642Z 17012KT 35/19 A299 RMK A01 T03510192  RH  039%=      5-min Rain = 0
KDO1 191643Z 17010KT 35/19 A299 RMK A01 T03500190  RH  039%=      5-min Rain = 0
KDO1 191644Z 17012G17KT 35/19 A299 RMK A01 T03500189  RH  039%=      5-min Rain = 0
KDO1 191645Z 18012G17KT 35/19 A299 RMK A01 T03510189  RH  038%=      5-min Rain = 0
KDO1 191646Z 19009KT 35/19 A299 RMK A01 T03540190  RH  038%=      5-min Rain = 0
KDO1 191647Z 19011KT 35/19 A299 RMK A01 T03540188  RH  038%=      5-min Rain = 0
KDO1 191648Z 17012KT 35/19 A299 RMK A01 T03520190  RH  038%=      5-min Rain = 0
KDO1 191649Z 16012KT 35/19 A299 RMK A01 T03530190  RH  039%=      5-min Rain = 0
KDO1 191650Z 16010KT 35/19 A299 RMK A01 T03530190  RH  039%=      5-min Rain = 0
KDO1 191651Z 18009KT 35/19 A299 RMK A01 T03530193  RH  039%=      5-min Rain = 0
KDO1 191652Z 18007KT 36/19 A299 RMK A01 T03560194  RH  039%=      5-min Rain = 0
KDO1 191653Z 18014G19KT 36/20 A299 RMK A01 T03590195  RH  038%=      5-min Rain = 0
KDO1 191654Z 18012KT 36/19 A299 RMK A01 T03590192  RH  037%=      5-min Rain = 0
KDO1 191655Z 18009KT 36/19 A299 RMK A01 T03580193  RH  038%=      5-min Rain = 0
KDO1 191656Z 17011KT 36/19 A299 RMK A01 T03570191  RH  038%=      5-min Rain = 0
KDO1 191657Z 17012KT 36/19 A299 RMK A01 T03560190  RH  038%=      5-min Rain = 0
KDO1 191658Z 15013KT 36/19 A299 RMK A01 T03560191  RH  038%=      5-min Rain = 0
KDO1 191659Z 15012KT 36/19 A299 RMK A01 T03580191  RH  037%=      5-min Rain = 0
KDO1 191700Z 17011KT 36/19 A299 RMK A01 T03580190  RH  037%=      5-min Rain = 0
KDO1 191701Z 17013KT 36/19 A299 RMK A01 T03590192  RH  038%=      5-min Rain = 0
KDO1 191702Z 16011KT 36/20 A299 RMK A01 T03590195  RH  038%=      5-min Rain = 0
KDO1 191703Z 15012KT 36/19 A299 RMK A01 T03600194  RH  038%=      5-min Rain = 0
KDO1 191704Z 16009KT 36/19 A299 RMK A01 T03580194  RH  038%=      5-min Rain = 0
KDO1 191705Z 18011KT 36/19 A299 RMK A01 T03580193  RH  038%=      5-min Rain = 0
KDO1 191706Z 18011KT 36/19 A299 RMK A01 T03590190  RH  037%=      5-min Rain = 0
KDO1 191707Z 18014KT 36/19 A299 RMK A01 T03590193  RH  038%=      5-min Rain = 0
KDO1 191708Z 19009KT 36/19 A299 RMK A01 T03560194  RH  039%=      5-min Rain = 0
KDO1 191709Z 15011KT 36/20 A299 RMK A01 T03570196  RH  039%=      5-min Rain = 0
KDO1 191710Z 13010KT 36/19 A299 RMK A01 T03580194  RH  038%=      5-min Rain = 0
KDO1 191711Z 16012KT 36/20 A299 RMK A01 T03580195  RH  039%=      5-min Rain = 0
KDO1 191712Z 17014G19KT 36/20 A299 RMK A01 T03590195  RH  038%=      5-min Rain = 0
KDO1 191713Z 16012KT 36/20 A299 RMK A01 T03580195  RH  038%=      5-min Rain = 0
KDO1 191714Z 14010KT 36/20 A299 RMK A01 T03580195  RH  039%=      5-min Rain = 0
KDO1 191715Z 17012KT 36/20 A299 RMK A01 T03600197  RH  038%=      5-min Rain = 0
KDO1 191716Z 18012KT 36/20 A299 RMK A01 T03640197  RH  038%=      5-min Rain = 0
KDO1 191717Z 17011KT 36/20 A299 RMK A01 T03640196  RH  038%=      5-min Rain = 0
KDO1 191718Z 16013KT 36/20 A299 RMK A01 T03630198  RH  038%=      5-min Rain = 0
KDO1 191719Z 18009KT 36/20 A299 RMK A01 T03640195  RH  037%=      5-min Rain = 0
KDO1 191720Z 15011KT 36/20 A299 RMK A01 T03610195  RH  038%=      5-min Rain = 0
KDO1 191721Z 16011KT 36/20 A299 RMK A01 T03610195  RH  038%=      5-min Rain = 0
KDO1 191722Z 17011G16KT 36/20 A299 RMK A01 T03630198  RH  038%=      5-min Rain = 0
KDO1 191723Z 16013G19KT 37/20 A299 RMK A01 T03650197  RH  038%=      5-min Rain = 0
KDO1 191724Z 15015KT 37/20 A299 RMK A01 T03650195  RH  037%=      5-min Rain = 0
KDO1 191725Z 16012KT 36/19 A299 RMK A01 T03640193  RH  037%=      5-min Rain = 0
KDO1 191726Z 15010KT 36/19 A299 RMK A01 T03600193  RH  038%=      5-min Rain = 0
KDO1 191727Z 17012G17KT 36/20 A299 RMK A01 T03590195  RH  038%=      5-min Rain = 0
KDO1 191728Z 17013KT 36/19 A299 RMK A01 T03600194  RH  038%=      5-min Rain = 0
KDO1 191729Z 16011KT 36/19 A299 RMK A01 T03600193  RH  038%=      5-min Rain = 0
KDO1 191730Z 15013KT 36/20 A299 RMK A01 T03610195  RH  038%=      5-min Rain = 0
KDO1 191731Z 15013KT 36/19 A299 RMK A01 T03630194  RH  037%=      5-min Rain = 0
KDO1 191732Z 15012KT 36/19 A299 RMK A01 T03620194  RH  037%=      5-min Rain = 0
KDO1 191733Z 15010KT 36/19 A299 RMK A01 T03610194  RH  038%=      5-min Rain = 0
KDO1 191734Z 16011KT 36/20 A299 RMK A01 T03620195  RH  038%=      5-min Rain = 0
KDO1 191735Z 17011KT 36/20 A299 RMK A01 T03640195  RH  037%=      5-min Rain = 0
KDO1 191736Z 19008KT 36/20 A299 RMK A01 T03630195  RH  038%=      5-min Rain = 0
KDO1 191737Z 18013G19KT 36/20 A2989 RMK A01 T03610197  RH  038%=      5-min Rain = 0
KDO1 191738Z 17016KT 36/20 A299 RMK A01 T03610196  RH  038%=      5-min Rain = 0
KDO1 191739Z 17013KT 36/20 A299 RMK A01 T03610196  RH  038%=      5-min Rain = 0
KDO1 191740Z 17013KT 36/19 A299 RMK A01 T03620194  RH  037%=      5-min Rain = 0
KDO1 191741Z 17013G18KT 36/19 A299 RMK A01 T03620194  RH  037%=      5-min Rain = 0
KDO1 191742Z 15010KT 36/20 A299 RMK A01 T03600197  RH  038%=      5-min Rain = 0
KDO1 191743Z 15009KT 36/20 A2989 RMK A01 T03620196  RH  038%=      5-min Rain = 0
KDO1 191744Z 16012G17KT 36/20 A2989 RMK A01 T03620198  RH  038%=      5-min Rain = 0
KDO1 191745Z 17012G17KT 36/20 A2989 RMK A01 T03630197  RH  038%=      5-min Rain = 0
KDO1 191746Z 16013KT 36/20 A2989 RMK A01 T03640195  RH  037%=      5-min Rain = 0
KDO1 191747Z 15012KT 36/20 A2989 RMK A01 T03640195  RH  037%=      5-min Rain = 0
KDO1 191748Z 15007KT 36/20 A2989 RMK A01 T03630196  RH  038%=      5-min Rain = 0
KDO1 191749Z 16013G18KT 37/20 A2989 RMK A01 T03660196  RH  037%=      5-min Rain = 0
KDO1 191750Z 17015KT 37/20 A2989 RMK A01 T03670196  RH  037%=      5-min Rain = 0
KDO1 191751Z 16014KT 37/20 A2989 RMK A01 T03650195  RH  037%=      5-min Rain = 0
KDO1 191752Z 16011KT 37/20 A2989 RMK A01 T03650196  RH  037%=      5-min Rain = 0
KDO1 191753Z 17011KT 37/20 A2989 RMK A01 T03650196  RH  037%=      5-min Rain = 0
KDO1 191754Z 16013KT 36/20 A2989 RMK A01 T03630197  RH  038%=      5-min Rain = 0
KDO1 191755Z 14009KT 36/20 A2989 RMK A01 T03630199  RH  038%=      5-min Rain = 0
KDO1 191756Z 16011KT 37/20 A2989 RMK A01 T03660199  RH  038%=      5-min Rain = 0
KDO1 191757Z 16015G20KT 37/20 A2989 RMK A01 T03680198  RH  037%=      5-min Rain = 0
KDO1 191758Z 16011KT 37/20 A2989 RMK A01 T03690196  RH  037%=      5-min Rain = 0
KDO1 191759Z 17012KT 37/20 A2989 RMK A01 T03680196  RH  037%=      5-min Rain = 0
KDO1 191800Z 17012KT 37/20 A2989 RMK A01 T03670196  RH  037%=      5-min Rain = 0
KDO1 191801Z 17017KT 37/20 A2989 RMK A01 T03660195  RH  037%=      5-min Rain = 0
KDO1 191802Z 15013G18KT 37/20 A2989 RMK A01 T03660196  RH  037%=      5-min Rain = 0
KDO1 191803Z 14011KT 37/20 A2989 RMK A01 T03670198  RH  037%=      5-min Rain = 0
KDO1 191804Z 15013KT 37/20 A2989 RMK A01 T03700197  RH  037%=      5-min Rain = 0
KDO1 191805Z 16011KT 37/20 A2989 RMK A01 T03680196  RH  037%=      5-min Rain = 0
KDO1 191806Z 16009KT 37/20 A2989 RMK A01 T03660197  RH  037%=      5-min Rain = 0
KDO1 191807Z 16017G22KT 37/20 A2989 RMK A01 T03660197  RH  037%=      5-min Rain = 0
KDO1 191808Z 16013KT 37/20 A2989 RMK A01 T03670195  RH  037%=      5-min Rain = 0
KDO1 191809Z 16011KT 37/20 A2989 RMK A01 T03670197  RH  037%=      5-min Rain = 0
KDO1 191810Z 16013KT 37/20 A2989 RMK A01 T03690200  RH  037%=      5-min Rain = 0
KDO1 191811Z 15011KT 37/20 A2989 RMK A01 T03700198  RH  037%=      5-min Rain = 0
KDO1 191812Z 15016G21KT 37/20 A2989 RMK A01 T03690201  RH  038%=      5-min Rain = 0
KDO1 191813Z 14016KT 37/20 A2989 RMK A01 T03690201  RH  038%=      5-min Rain = 0
KDO1 191814Z 14014KT 37/20 A2989 RMK A01 T03670200  RH  038%=      5-min Rain = 0
KDO1 191815Z 14014KT 36/20 A2989 RMK A01 T03640201  RH  039%=      5-min Rain = 0
KDO1 191816Z 14015KT 36/20 A2989 RMK A01 T03640201  RH  039%=      5-min Rain = 0
KDO1 191817Z 13013KT 36/20 A2989 RMK A01 T03640202  RH  039%=      5-min Rain = 0
KDO1 191818Z 14014KT 37/20 A2989 RMK A01 T03660199  RH  038%=      5-min Rain = 0
KDO1 191819Z 17011KT 37/20 A2989 RMK A01 T03680201  RH  038%=      5-min Rain = 0
KDO1 191820Z 17012KT 37/20 A2989 RMK A01 T03720197  RH  036%=      5-min Rain = 0
KDO1 191821Z 17014KT 37/20 A2989 RMK A01 T03720197  RH  036%=      5-min Rain = 0
KDO1 191822Z 16012KT 37/20 A2989 RMK A01 T03700198  RH  037%=      5-min Rain = 0
KDO1 191823Z 15013G19KT 37/20 A2989 RMK A01 T03690202  RH  038%=      5-min Rain = 0
KDO1 191824Z 16014G20KT 37/20 A2989 RMK A01 T03720203  RH  038%=      5-min Rain = 0
KDO1 191825Z 17017KT 37/20 A2989 RMK A01 T03730202  RH  037%=      5-min Rain = 0
KDO1 191826Z 17013KT 37/20 A2989 RMK A01 T03690201  RH  038%=      5-min Rain = 0
KDO1 191827Z 17010G15KT 37/20 A2988 RMK A01 T03670200  RH  038%=      5-min Rain = 0
KDO1 191828Z 16010KT 37/20 A2988 RMK A01 T03680202  RH  038%=      5-min Rain = 0
KDO1 191829Z 17013G18KT 37/20 A2988 RMK A01 T03740204  RH  037%=      5-min Rain = 0
KDO1 191830Z 18016KT 38/20 A2988 RMK A01 T03760202  RH  036%=      5-min Rain = 0
KDO1 191831Z 17016KT 37/20 A2988 RMK A01 T03740202  RH  037%=      5-min Rain = 0
KDO1 191832Z 14016KT 37/20 A2988 RMK A01 T03730201  RH  037%=      5-min Rain = 0
KDO1 191833Z 15014KT 37/20 A2988 RMK A01 T03720199  RH  037%=      5-min Rain = 0
KDO1 191834Z 15016KT 37/20 A2988 RMK A01 T03710199  RH  037%=      5-min Rain = 0
KDO1 191835Z 16017KT 37/20 A2988 RMK A01 T03690198  RH  037%=      5-min Rain = 0
KDO1 191836Z 17014KT 37/19 A2989 RMK A01 T03700193  RH  036%=      5-min Rain = 0
KDO1 191837Z 16014KT 37/19 A2989 RMK A01 T03710193  RH  035%=      5-min Rain = 0
KDO1 191838Z 14015KT 37/20 A2988 RMK A01 T03710197  RH  036%=      5-min Rain = 0
KDO1 191839Z 15013KT 37/20 A2989 RMK A01 T03710199  RH  037%=      5-min Rain = 0
KDO1 191840Z 15013KT 37/20 A2989 RMK A01 T03710197  RH  036%=      5-min Rain = 0
KDO1 191841Z 17016KT 37/20 A2989 RMK A01 T03710198  RH  037%=      5-min Rain = 0
KDO1 191842Z 17011KT 37/20 A2989 RMK A01 T03730199  RH  036%=      5-min Rain = 0
KDO1 191843Z 18013KT 38/20 A2988 RMK A01 T03750197  RH  035%=      5-min Rain = 0
KDO1 191844Z 19013KT 38/20 A2988 RMK A01 T03760196  RH  035%=      5-min Rain = 0
KDO1 191845Z 17011KT 38/20 A2988 RMK A01 T03770198  RH  035%=      5-min Rain = 0
KDO1 191846Z 16013G18KT 38/20 A2988 RMK A01 T03810200  RH  035%=      5-min Rain = 0
KDO1 191847Z 17015KT 38/20 A2989 RMK A01 T03830199  RH  034%=      5-min Rain = 0
KDO1 191848Z 16013KT 38/20 A2988 RMK A01 T03790197  RH  035%=      5-min Rain = 0
KDO1 191849Z 16011KT 38/20 A2988 RMK A01 T03760199  RH  036%=      5-min Rain = 0
KDO1 191850Z 18015G20KT 38/20 A2988 RMK A01 T03760201  RH  036%=      5-min Rain = 0
KDO1 191851Z 18017KT 38/20 A2988 RMK A01 T03770201  RH  036%=      5-min Rain = 0
KDO1 191852Z 17019KT 37/20 A2988 RMK A01 T03740198  RH  036%=      5-min Rain = 0
KDO1 191853Z 17014G19KT 37/20 A2988 RMK A01 T03710198  RH  036%=      5-min Rain = 0
KDO1 191854Z 15013KT 37/20 A2988 RMK A01 T03700200  RH  037%=      5-min Rain = 0
KDO1 191855Z 15013G18KT 37/20 A2988 RMK A01 T03720202  RH  037%=      5-min Rain = 0
KDO1 191856Z 14016KT 37/20 A2988 RMK A01 T03720200  RH  037%=      5-min Rain = 0
KDO1 191857Z 15014KT 37/20 A2988 RMK A01 T03720201  RH  037%=      5-min Rain = 0
KDO1 191858Z 16017KT 37/20 A2988 RMK A01 T03740202  RH  037%=      5-min Rain = 0
KDO1 191859Z 17016G21KT 38/20 A2988 RMK A01 T03760198  RH  036%=      5-min Rain = 0
KDO1 191900Z 17013KT 38/20 A2988 RMK A01 T03760199  RH  036%=      5-min Rain = 0
KDO1 191901Z 15013KT 38/20 A2988 RMK A01 T03760200  RH  036%=      5-min Rain = 0
KDO1 191902Z 15013KT 38/20 A2988 RMK A01 T03770198  RH  035%=      5-min Rain = 0
KDO1 191903Z 16014G21KT 38/20 A2988 RMK A01 T03770197  RH  035%=      5-min Rain = 0
KDO1 191904Z 17013KT 38/20 A2988 RMK A01 T03770196  RH  035%=      5-min Rain = 0
KDO1 191905Z 18013KT 38/20 A2988 RMK A01 T03780200  RH  036%=      5-min Rain = 0
KDO1 191906Z 18013KT 38/20 A2988 RMK A01 T03780200  RH  036%=      5-min Rain = 0
KDO1 191907Z 16014KT 38/20 A2988 RMK A01 T03770200  RH  036%=      5-min Rain = 0
KDO1 191908Z 17013G19KT 38/20 A2988 RMK A01 T03760200  RH  036%=      5-min Rain = 0
KDO1 191909Z 16016KT 38/20 A2988 RMK A01 T03770200  RH  036%=      5-min Rain = 0
KDO1 191910Z 15017KT 38/20 A2988 RMK A01 T03780198  RH  035%=      5-min Rain = 0
KDO1 191911Z 16012KT 38/20 A2988 RMK A01 T03770197  RH  035%=      5-min Rain = 0
KDO1 191912Z 15014G25KT 38/20 A2988 RMK A01 T03760198  RH  036%=      5-min Rain = 0
KDO1 191913Z 16016KT 38/20 A2988 RMK A01 T03770197  RH  035%=      5-min Rain = 0
KDO1 191914Z 14017KT 38/20 A2988 RMK A01 T03760198  RH  035%=      5-min Rain = 0
KDO1 191915Z 14014KT 38/20 A2988 RMK A01 T03760198  RH  036%=      5-min Rain = 0
KDO1 191916Z 16013KT 38/20 A2988 RMK A01 T03770197  RH  035%=      5-min Rain = 0
KDO1 191917Z 16009KT 38/20 A2988 RMK A01 T03780198  RH  035%=      5-min Rain = 0
KDO1 191918Z 14015KT 38/20 A2988 RMK A01 T03770198  RH  035%=      5-min Rain = 0
KDO1 191919Z 15011KT 38/20 A2988 RMK A01 T03770198  RH  035%=      5-min Rain = 0
KDO1 191920Z 15015KT 38/20 A2988 RMK A01 T03790199  RH  035%=      5-min Rain = 0
KDO1 191921Z 15012KT 38/20 A2988 RMK A01 T03790197  RH  035%=      5-min Rain = 0
KDO1 191922Z 15014G19KT 38/20 A2988 RMK A01 T03790197  RH  035%=      5-min Rain = 0
KDO1 191923Z 17010G16KT 38/20 A2988 RMK A01 T03810197  RH  034%=      5-min Rain = 0
KDO1 191924Z 16013KT 38/20 A2988 RMK A01 T03830195  RH  034%=      5-min Rain = 0
KDO1 191925Z 16013KT 38/19 A2988 RMK A01 T03810193  RH  033%=      5-min Rain = 0
KDO1 191926Z 18013KT 38/19 A2988 RMK A01 T03800191  RH  033%=      5-min Rain = 0
KDO1 191927Z 16016KT 38/20 A2988 RMK A01 T03790195  RH  034%=      5-min Rain = 0
KDO1 191928Z 16014KT 38/20 A2988 RMK A01 T03800197  RH  034%=      5-min Rain = 0
KDO1 191929Z 15015KT 38/20 A2988 RMK A01 T03780197  RH  035%=      5-min Rain = 0
KDO1 191930Z 17011KT 38/20 A2988 RMK A01 T03760198  RH  036%=      5-min Rain = 0
KDO1 191931Z 17014KT 38/20 A2987 RMK A01 T03780200  RH  036%=      5-min Rain = 0
KDO1 191932Z 15016G21KT 38/20 A2987 RMK A01 T03780199  RH  035%=      5-min Rain = 0
KDO1 191933Z 16014KT 38/20 A2987 RMK A01 T03780198  RH  035%=      5-min Rain = 0
KDO1 191934Z 14016KT 38/20 A2987 RMK A01 T03790197  RH  035%=      5-min Rain = 0
KDO1 191935Z 16017G22KT 38/20 A2987 RMK A01 T03800195  RH  034%=      5-min Rain = 0
KDO1 191936Z 17013G19KT 38/20 A2988 RMK A01 T03780196  RH  035%=      5-min Rain = 0
KDO1 191937Z 16012KT 38/20 A2988 RMK A01 T03790198  RH  035%=      5-min Rain = 0
KDO1 191938Z 15012G17KT 38/20 A2988 RMK A01 T03810198  RH  035%=      5-min Rain = 0
KDO1 191939Z 14012KT 38/20 A2987 RMK A01 T03830197  RH  034%=      5-min Rain = 0
KDO1 191940Z 14014KT 38/20 A2987 RMK A01 T03820196  RH  034%=      5-min Rain = 0
KDO1 191941Z 17012KT 38/20 A2987 RMK A01 T03820197  RH  034%=      5-min Rain = 0
KDO1 191942Z 17010KT 38/20 A2987 RMK A01 T03820197  RH  034%=      5-min Rain = 0
KDO1 191943Z 15008KT 38/20 A2987 RMK A01 T03830199  RH  034%=      5-min Rain = 0
KDO1 191944Z 13013KT 39/20 A2987 RMK A01 T03870198  RH  034%=      5-min Rain = 0
KDO1 191945Z 14011KT 39/20 A2987 RMK A01 T03890197  RH  033%=      5-min Rain = 0
KDO1 191946Z 14009KT 39/20 A2987 RMK A01 T03880196  RH  033%=      5-min Rain = 0
KDO1 191947Z 16013KT 39/20 A2987 RMK A01 T03870197  RH  033%=      5-min Rain = 0
KDO1 191948Z 18012KT 39/20 A2987 RMK A01 T03890199  RH  033%=      5-min Rain = 0
KDO1 191949Z 18010KT 39/20 A2987 RMK A01 T03900201  RH  034%=      5-min Rain = 0
KDO1 191950Z 17012KT 39/20 A2987 RMK A01 T03930202  RH  033%=      5-min Rain = 0
KDO1 191951Z 18011KT 39/20 A2987 RMK A01 T03920199  RH  033%=      5-min Rain = 0
KDO1 191952Z 18014G19KT 39/20 A2987 RMK A01 T03900200  RH  033%=      5-min Rain = 0
KDO1 191953Z 18013G19KT 39/20 A2987 RMK A01 T03890199  RH  033%=      5-min Rain = 0
KDO1 191954Z 17012G17KT 39/20 A2987 RMK A01 T03880199  RH  033%=      5-min Rain = 0
KDO1 191955Z 17013KT 39/20 A2987 RMK A01 T03890196  RH  033%=      5-min Rain = 0
KDO1 191956Z 16011G16KT 39/19 A2987 RMK A01 T03900194  RH  032%=      5-min Rain = 0
KDO1 191957Z 16012KT 39/19 A2987 RMK A01 T03870192  RH  032%=      5-min Rain = 0
KDO1 191958Z 17011KT 38/19 A2987 RMK A01 T03830192  RH  033%=      5-min Rain = 0
KDO1 191959Z 16014G20KT 38/19 A2987 RMK A01 T03830192  RH  033%=      5-min Rain = 0
KDO1 192000Z 16013KT 38/19 A2987 RMK A01 T03830191  RH  033%=      5-min Rain = 0
KDO1 192001Z 15010G15KT 38/19 A2987 RMK A01 T03820193  RH  033%=      5-min Rain = 0
KDO1 192002Z 16012KT 38/19 A2987 RMK A01 T03840191  RH  033%=      5-min Rain = 0
KDO1 192003Z 16011KT 38/19 A2987 RMK A01 T03840188  RH  032%=      5-min Rain = 0
KDO1 192004Z 16013G18KT 38/19 A2987 RMK A01 T03830191  RH  033%=      5-min Rain = 0
KDO1 192005Z 16010KT 39/19 A2986 RMK A01 T03850192  RH  033%=      5-min Rain = 0
KDO1 192006Z 17011KT 39/19 A2987 RMK A01 T03860192  RH  032%=      5-min Rain = 0
KDO1 192007Z 16016KT 39/19 A2987 RMK A01 T03880193  RH  032%=      5-min Rain = 0
KDO1 192008Z 16016KT 39/19 A2987 RMK A01 T03890191  RH  032%=      5-min Rain = 0
KDO1 192009Z 17014G19KT 39/19 A2987 RMK A01 T03850190  RH  032%=      5-min Rain = 0
KDO1 192010Z 17016KT 39/19 A2987 RMK A01 T03850190  RH  032%=      5-min Rain = 0
KDO1 192011Z 17014KT 38/19 A2987 RMK A01 T03840188  RH  032%=      5-min Rain = 0
KDO1 192012Z 18011KT 38/19 A2986 RMK A01 T03840190  RH  033%=      5-min Rain = 0
KDO1 192013Z 17013G19KT 39/19 A2986 RMK A01 T03860194  RH  033%=      5-min Rain = 0
KDO1 192014Z 17017KT 39/19 A2987 RMK A01 T03880190  RH  032%=      5-min Rain = 0
KDO1 192015Z 16014G19KT 39/19 A2987 RMK A01 T03860189  RH  032%=      5-min Rain = 0
KDO1 192016Z 17017KT 38/19 A2986 RMK A01 T03840190  RH  032%=      5-min Rain = 0
KDO1 192017Z 17015KT 38/19 A2986 RMK A01 T03840192  RH  033%=      5-min Rain = 0
KDO1 192018Z 17012G17KT 38/19 A2986 RMK A01 T03840194  RH  033%=      5-min Rain = 0
KDO1 192019Z 17014KT 39/19 A2986 RMK A01 T03850194  RH  033%=      5-min Rain = 0
KDO1 192020Z 16012G17KT 39/19 A2986 RMK A01 T03850193  RH  033%=      5-min Rain = 0
KDO1 192021Z 16011KT 39/19 A2986 RMK A01 T03860193  RH  033%=      5-min Rain = 0
KDO1 192022Z 15011G17KT 39/20 A2986 RMK A01 T03890195  RH  033%=      5-min Rain = 0
KDO1 192023Z 17012G19KT 39/20 A2986 RMK A01 T03920196  RH  032%=      5-min Rain = 0
KDO1 192024Z 17018KT 39/19 A2986 RMK A01 T03930193  RH  032%=      5-min Rain = 0
KDO1 192025Z 16015KT 39/19 A2986 RMK A01 T03870191  RH  032%=      5-min Rain = 0
KDO1 192026Z 15015G21KT 39/19 A2986 RMK A01 T03850190  RH  032%=      5-min Rain = 0
KDO1 192027Z 15015KT 39/19 A2986 RMK A01 T03860191  RH  032%=      5-min Rain = 0
KDO1 192028Z 15014G20KT 39/19 A2986 RMK A01 T03860192  RH  033%=      5-min Rain = 0
KDO1 192029Z 16016KT 39/19 A2986 RMK A01 T03870191  RH  032%=      5-min Rain = 0
KDO1 192030Z 15013KT 39/19 A2986 RMK A01 T03870190  RH  032%=      5-min Rain = 0
KDO1 192031Z 15014G19KT 39/19 A2986 RMK A01 T03860191  RH  032%=      5-min Rain = 0
KDO1 192032Z 16014G20KT 39/19 A2986 RMK A01 T03870189  RH  032%=      5-min Rain = 0
KDO1 192033Z 14013KT 39/19 A2986 RMK A01 T03850190  RH  032%=      5-min Rain = 0
KDO1 192034Z 13015KT 39/19 A2986 RMK A01 T03880189  RH  032%=      5-min Rain = 0
KDO1 192035Z 14014KT 39/19 A2986 RMK A01 T03890189  RH  031%=      5-min Rain = 0
KDO1 192036Z 15014KT 39/19 A2986 RMK A01 T03900192  RH  032%=      5-min Rain = 0
KDO1 192037Z 15015KT 39/19 A2986 RMK A01 T03900193  RH  032%=      5-min Rain = 0
KDO1 192038Z 15017G22KT 39/19 A2986 RMK A01 T03910192  RH  032%=      5-min Rain = 0
KDO1 192039Z 14013KT 39/19 A2986 RMK A01 T03890191  RH  032%=      5-min Rain = 0
KDO1 192040Z 15015G21KT 39/19 A2986 RMK A01 T03880190  RH  032%=      5-min Rain = 0
KDO1 192041Z 16017G23KT 39/19 A2986 RMK A01 T03890190  RH  032%=      5-min Rain = 0
KDO1 192042Z 17017KT 39/19 A2986 RMK A01 T03900189  RH  031%=      5-min Rain = 0
KDO1 192043Z 16016KT 39/19 A2986 RMK A01 T03890189  RH  031%=      5-min Rain = 0
KDO1 192044Z 17016G21KT 39/19 A2986 RMK A01 T03900188  RH  031%=      5-min Rain = 0
KDO1 192045Z 18016G22KT 39/19 A2986 RMK A01 T03900187  RH  031%=      5-min Rain = 0
KDO1 192046Z 18015G22KT 39/19 A2986 RMK A01 T03890187  RH  031%=      5-min Rain = 0
KDO1 192047Z 16014G22KT 39/19 A2986 RMK A01 T03880187  RH  031%=      5-min Rain = 0
KDO1 192048Z 15016KT 39/19 A2986 RMK A01 T03910187  RH  031%=      5-min Rain = 0
KDO1 192049Z 15012KT 39/19 A2986 RMK A01 T03920186  RH  030%=      5-min Rain = 0
KDO1 192050Z 16012KT 39/19 A2986 RMK A01 T03910187  RH  031%=      5-min Rain = 0
KDO1 192051Z 16013KT 39/19 A2986 RMK A01 T03910186  RH  030%=      5-min Rain = 0
KDO1 192052Z 15018G23KT 39/19 A2985 RMK A01 T03910187  RH  031%=      5-min Rain = 0
KDO1 192053Z 15017KT 39/19 A2985 RMK A01 T03910187  RH  031%=      5-min Rain = 0
KDO1 192054Z 16015KT 39/19 A2985 RMK A01 T03910186  RH  031%=      5-min Rain = 0
KDO1 192055Z 16015KT 39/19 A2985 RMK A01 T03920185  RH  030%=      5-min Rain = 0
KDO1 192056Z 16014KT 39/18 A2985 RMK A01 T03900183  RH  030%=      5-min Rain = 0
KDO1 192057Z 17014KT 39/18 A2985 RMK A01 T03880184  RH  031%=      5-min Rain = 0
KDO1 192058Z 15014G21KT 39/19 A2985 RMK A01 T03890186  RH  031%=      5-min Rain = 0
KDO1 192059Z 15013G18KT 39/18 A2985 RMK A01 T03910183  RH  030%=      5-min Rain = 0
KDO1 192100Z 16013G19KT 39/19 A2985 RMK A01 T03910185  RH  030%=      5-min Rain = 0
KDO1 192101Z 17015KT 39/19 A2985 RMK A01 T03910187  RH  031%=      5-min Rain = 0
KDO1 192102Z 16015KT 39/19 A2985 RMK A01 T03910188  RH  031%=      5-min Rain = 0
KDO1 192103Z 16012KT 39/19 A2985 RMK A01 T03920188  RH  031%=      5-min Rain = 0
KDO1 192104Z 17012KT 39/19 A2985 RMK A01 T03930189  RH  031%=      5-min Rain = 0
KDO1 192105Z 17014KT 40/19 A2985 RMK A01 T03950186  RH  030%=      5-min Rain = 0
KDO1 192106Z 16017KT 39/19 A2985 RMK A01 T03940186  RH  030%=      5-min Rain = 0
KDO1 192107Z 16014KT 39/19 A2985 RMK A01 T03930186  RH  030%=      5-min Rain = 0
KDO1 192108Z 16014KT 39/18 A2985 RMK A01 T03920184  RH  030%=      5-min Rain = 0
KDO1 192109Z 17013KT 39/19 A2985 RMK A01 T03920186  RH  030%=      5-min Rain = 0
KDO1 192110Z 17014KT 39/19 A2985 RMK A01 T03920186  RH  030%=      5-min Rain = 0
KDO1 192111Z 16016G22KT 39/19 A2985 RMK A01 T03920185  RH  030%=      5-min Rain = 0
KDO1 192112Z 15016KT 39/18 A2985 RMK A01 T03920184  RH  030%=      5-min Rain = 0
KDO1 192113Z 14013KT 39/19 A2985 RMK A01 T03910185  RH  030%=      5-min Rain = 0
KDO1 192114Z 15015KT 39/19 A2985 RMK A01 T03920185  RH  030%=      5-min Rain = 0
KDO1 192115Z 14013KT 39/19 A2985 RMK A01 T03920185  RH  030%=      5-min Rain = 0
KDO1 192116Z 15015KT 39/19 A2985 RMK A01 T03930187  RH  030%=      5-min Rain = 0
KDO1 192117Z 15015KT 40/19 A2985 RMK A01 T03950187  RH  030%=      5-min Rain = 0
KDO1 192118Z 16012KT 40/19 A2985 RMK A01 T03950186  RH  030%=      5-min Rain = 0
KDO1 192119Z 17012G17KT 40/19 A2985 RMK A01 T03950186  RH  030%=      5-min Rain = 0
KDO1 192120Z 15013KT 40/19 A2985 RMK A01 T03960186  RH  030%=      5-min Rain = 0
KDO1 192121Z 17017KT 40/18 A2985 RMK A01 T03970184  RH  029%=      5-min Rain = 0
KDO1 192122Z 17015KT 40/18 A2985 RMK A01 T03960183  RH  029%=      5-min Rain = 0
KDO1 192123Z 16016KT 40/18 A2985 RMK A01 T03950181  RH  029%=      5-min Rain = 0
KDO1 192124Z 17015KT 39/18 A2985 RMK A01 T03930180  RH  029%=      5-min Rain = 0
KDO1 192125Z 16011G16KT 39/18 A2985 RMK A01 T03930181  RH  029%=      5-min Rain = 0
KDO1 192126Z 17010KT 39/18 A2985 RMK A01 T03940183  RH  029%=      5-min Rain = 0
KDO1 192127Z 16011G16KT 40/19 A2985 RMK A01 T03960186  RH  030%=      5-min Rain = 0
KDO1 192128Z 15012KT 40/19 A2984 RMK A01 T03970186  RH  029%=      5-min Rain = 0
KDO1 192129Z 14012KT 40/19 A2984 RMK A01 T03970186  RH  029%=      5-min Rain = 0
KDO1 192130Z 16017KT 40/18 A2984 RMK A01 T03970183  RH  029%=      5-min Rain = 0
KDO1 192131Z 16016G21KT 39/18 A2984 RMK A01 T03940182  RH  029%=      5-min Rain = 0
KDO1 192132Z 16019KT 39/18 A2984 RMK A01 T03930181  RH  029%=      5-min Rain = 0
KDO1 192133Z 17015G20KT 39/18 A2985 RMK A01 T03930181  RH  029%=      5-min Rain = 0
KDO1 192134Z 17014KT 39/18 A2984 RMK A01 T03920182  RH  029%=      5-min Rain = 0
KDO1 192135Z 16011KT 39/18 A2984 RMK A01 T03910182  RH  030%=      5-min Rain = 0
KDO1 192136Z 15012KT 39/18 A2984 RMK A01 T03910183  RH  030%=      5-min Rain = 0
KDO1 192137Z 18012KT 39/18 A2984 RMK A01 T03940182  RH  029%=      5-min Rain = 0
KDO1 192138Z 15010G15KT 39/18 A2984 RMK A01 T03930183  RH  029%=      5-min Rain = 0
KDO1 192139Z 15017KT 39/18 A2984 RMK A01 T03940183  RH  029%=      5-min Rain = 0
KDO1 192140Z 14016G21KT 39/18 A2984 RMK A01 T03940182  RH  029%=      5-min Rain = 0
KDO1 192141Z 15016KT 39/18 A2984 RMK A01 T03940182  RH  029%=      5-min Rain = 0
KDO1 192142Z 16011KT 39/18 A2984 RMK A01 T03930184  RH  030%=      5-min Rain = 0
KDO1 192143Z 15012KT 39/18 A2984 RMK A01 T03940184  RH  030%=      5-min Rain = 0
KDO1 192144Z 16012KT 40/18 A2984 RMK A01 T03970184  RH  029%=      5-min Rain = 0
KDO1 192145Z 17014G23KT 40/19 A2984 RMK A01 T03960185  RH  029%=      5-min Rain = 0
KDO1 192146Z 17017KT 40/18 A2984 RMK A01 T03960182  RH  029%=      5-min Rain = 0
KDO1 192147Z 16014G19KT 40/18 A2984 RMK A01 T03960178  RH  028%=      5-min Rain = 0
KDO1 192148Z 17014KT 40/18 A2984 RMK A01 T03950179  RH  029%=      5-min Rain = 0
KDO1 192149Z 17017KT 40/18 A2984 RMK A01 T03950180  RH  029%=      5-min Rain = 0
KDO1 192150Z 17015KT 39/18 A2984 RMK A01 T03940180  RH  029%=      5-min Rain = 0
KDO1 192151Z 17014KT 39/18 A2984 RMK A01 T03930180  RH  029%=      5-min Rain = 0
KDO1 192152Z 17011KT 39/18 A2984 RMK A01 T03920182  RH  029%=      5-min Rain = 0
KDO1 192153Z 17011KT 39/18 A2984 RMK A01 T03930183  RH  030%=      5-min Rain = 0
KDO1 192154Z 16010KT 40/19 A2984 RMK A01 T03950186  RH  030%=      5-min Rain = 0
KDO1 192155Z 16013KT 40/19 A2983 RMK A01 T03980186  RH  029%=      5-min Rain = 0
KDO1 192156Z 15014KT 40/18 A2983 RMK A01 T03980183  RH  029%=      5-min Rain = 0
KDO1 192157Z 15014KT 39/18 A2983 RMK A01 T03940181  RH  029%=      5-min Rain = 0
KDO1 192158Z 14014G19KT 39/18 A2983 RMK A01 T03920182  RH  029%=      5-min Rain = 0
KDO1 192159Z 14014G20KT 39/18 A2983 RMK A01 T03930181  RH  029%=      5-min Rain = 0
KDO1 192200Z 15015G20KT 40/18 A2983 RMK A01 T03950182  RH  029%=      5-min Rain = 0
KDO1 192201Z 15017KT 40/18 A2983 RMK A01 T03960181  RH  029%=      5-min Rain = 0
KDO1 192202Z 15018KT 40/18 A2983 RMK A01 T03950182  RH  029%=      5-min Rain = 0
KDO1 192203Z 15017G22KT 40/18 A2983 RMK A01 T03950181  RH  029%=      5-min Rain = 0
KDO1 192204Z 14017KT 39/18 A2983 RMK A01 T03940181  RH  029%=      5-min Rain = 0
KDO1 192205Z 14018KT 39/18 A2983 RMK A01 T03940180  RH  029%=      5-min Rain = 0
KDO1 192206Z 15012G17KT 39/18 A2983 RMK A01 T03920180  RH  029%=      5-min Rain = 0
KDO1 192207Z 15015KT 40/18 A2983 RMK A01 T03950183  RH  029%=      5-min Rain = 0
KDO1 192208Z 15016KT 40/18 A2983 RMK A01 T03960181  RH  029%=      5-min Rain = 0
KDO1 192209Z 15015G22KT 40/18 A2983 RMK A01 T03950181  RH  029%=      5-min Rain = 0
KDO1 192210Z 15013G18KT 40/18 A2983 RMK A01 T03950181  RH  029%=      5-min Rain = 0
KDO1 192211Z 14012G17KT 40/18 A2983 RMK A01 T03950183  RH  029%=      5-min Rain = 0
KDO1 192212Z 16016G22KT 40/18 A2983 RMK A01 T03970183  RH  029%=      5-min Rain = 0
KDO1 192213Z 17015KT 40/18 A2983 RMK A01 T03970184  RH  029%=      5-min Rain = 0
KDO1 192214Z 17016KT 40/18 A2983 RMK A01 T03970183  RH  029%=      5-min Rain = 0
KDO1 192215Z 17014G19KT 40/18 A2983 RMK A01 T03950183  RH  029%=      5-min Rain = 0
KDO1 192216Z 17014G19KT 39/18 A2983 RMK A01 T03940181  RH  029%=      5-min Rain = 0
KDO1 192217Z 18015KT 39/18 A2983 RMK A01 T03940182  RH  029%=      5-min Rain = 0
KDO1 192218Z 17013KT 39/18 A2983 RMK A01 T03940182  RH  029%=      5-min Rain = 0
KDO1 192219Z 16014KT 39/18 A2983 RMK A01 T03940182  RH  029%=      5-min Rain = 0
KDO1 192220Z 16012KT 39/18 A2983 RMK A01 T03930182  RH  029%=      5-min Rain = 0
KDO1 192221Z 16013G18KT 39/18 A2983 RMK A01 T03940181  RH  029%=      5-min Rain = 0
KDO1 192222Z 17014KT 40/18 A2983 RMK A01 T03950180  RH  029%=      5-min Rain = 0
KDO1 192223Z 17015KT 40/18 A2983 RMK A01 T03950180  RH  029%=      5-min Rain = 0
KDO1 192224Z 16013G18KT 40/18 A2983 RMK A01 T03950181  RH  029%=      5-min Rain = 0
KDO1 192225Z 16015KT 40/18 A2983 RMK A01 T03960178  RH  028%=      5-min Rain = 0
KDO1 192226Z 15016G22KT 39/18 A2983 RMK A01 T03940178  RH  028%=      5-min Rain = 0
KDO1 192227Z 14016KT 39/18 A2983 RMK A01 T03940177  RH  028%=      5-min Rain = 0
KDO1 192228Z 15014G19KT 39/18 A2983 RMK A01 T03930177  RH  028%=      5-min Rain = 0
KDO1 192229Z 15016G21KT 39/18 A2983 RMK A01 T03920178  RH  029%=      5-min Rain = 0
KDO1 192230Z 15014KT 39/18 A2983 RMK A01 T03930179  RH  029%=      5-min Rain = 0
KDO1 192231Z 17011G16KT 39/18 A2983 RMK A01 T03930181  RH  029%=      5-min Rain = 0
KDO1 192232Z 17015KT 40/18 A2983 RMK A01 T03950182  RH  029%=      5-min Rain = 0
KDO1 192233Z 17012KT 40/18 A2983 RMK A01 T03950182  RH  029%=      5-min Rain = 0
KDO1 192234Z 18013KT 40/18 A2983 RMK A01 T03950183  RH  029%=      5-min Rain = 0
KDO1 192235Z 17014G19KT 40/18 A2983 RMK A01 T03960182  RH  029%=      5-min Rain = 0
KDO1 192236Z 15015KT 40/18 A2983 RMK A01 T03960180  RH  029%=      5-min Rain = 0
KDO1 192237Z 16010KT 40/18 A2983 RMK A01 T03960180  RH  028%=      5-min Rain = 0
KDO1 192238Z 16012KT 40/18 A2983 RMK A01 T03960181  RH  029%=      5-min Rain = 0
KDO1 192239Z 16012KT 40/18 A2983 RMK A01 T03970181  RH  029%=      5-min Rain = 0
KDO1 192240Z 14012KT 40/18 A2982 RMK A01 T03970178  RH  028%=      5-min Rain = 0
KDO1 192241Z 16013KT 40/18 A2983 RMK A01 T03980176  RH  028%=      5-min Rain = 0
KDO1 192242Z 17012KT 40/18 A2982 RMK A01 T03990180  RH  028%=      5-min Rain = 0
KDO1 192243Z 17014KT 40/18 A2982 RMK A01 T03980182  RH  029%=      5-min Rain = 0
KDO1 192244Z 17015KT 40/18 A2982 RMK A01 T03970180  RH  028%=      5-min Rain = 0
KDO1 192245Z 16014KT 40/18 A2983 RMK A01 T03950178  RH  028%=      5-min Rain = 0
KDO1 192246Z 17013KT 39/18 A2982 RMK A01 T03930177  RH  029%=      5-min Rain = 0
KDO1 192247Z 15013KT 39/18 A2982 RMK A01 T03920177  RH  029%=      5-min Rain = 0
KDO1 192248Z 15011KT 39/18 A2982 RMK A01 T03920179  RH  029%=      5-min Rain = 0
KDO1 192249Z 16015G22KT 40/18 A2982 RMK A01 T03950180  RH  029%=      5-min Rain = 0
KDO1 192250Z 17016G22KT 40/18 A2982 RMK A01 T03960176  RH  028%=      5-min Rain = 0
KDO1 192251Z 16014G19KT 39/18 A2982 RMK A01 T03930176  RH  028%=      5-min Rain = 0
KDO1 192252Z 16012KT 39/18 A2982 RMK A01 T03930176  RH  028%=      5-min Rain = 0
KDO1 192253Z 16011G16KT 39/18 A2982 RMK A01 T03920177  RH  029%=      5-min Rain = 0
KDO1 192254Z 15011KT 39/18 A2982 RMK A01 T03940177  RH  028%=      5-min Rain = 0
KDO1 192255Z 16013KT 40/18 A2982 RMK A01 T03950177  RH  028%=      5-min Rain = 0
KDO1 192256Z 16015G20KT 40/18 A2982 RMK A01 T03960179  RH  028%=      5-min Rain = 0
KDO1 192257Z 15015KT 40/18 A2982 RMK A01 T03960178  RH  028%=      5-min Rain = 0
KDO1 192258Z 17013KT 39/18 A2982 RMK A01 T03940177  RH  028%=      5-min Rain = 0
KDO1 192259Z 16013G19KT 39/18 A2982 RMK A01 T03930178  RH  029%=      5-min Rain = 0
KDO1 192300Z 15019KT 39/18 A2982 RMK A01 T03930177  RH  028%=      5-min Rain = 0
KDO1 192301Z 16017G22KT 39/18 A2982 RMK A01 T03920176  RH  028%=      5-min Rain = 0
KDO1 192302Z 16017KT 39/18 A2982 RMK A01 T03900175  RH  028%=      5-min Rain = 0
KDO1 192303Z 16015KT 39/18 A2982 RMK A01 T03900175  RH  029%=      5-min Rain = 0
KDO1 192304Z 15013KT 39/18 A2982 RMK A01 T03900175  RH  029%=      5-min Rain = 0
KDO1 192305Z 14013KT 39/18 A2982 RMK A01 T03900175  RH  029%=      5-min Rain = 0
KDO1 192306Z 14014KT 39/18 A2982 RMK A01 T03920176  RH  029%=      5-min Rain = 0
KDO1 192307Z 15017G22KT 39/18 A2982 RMK A01 T03930175  RH  028%=      5-min Rain = 0
KDO1 192308Z 16013G21KT 39/18 A2982 RMK A01 T03920178  RH  029%=      5-min Rain = 0
KDO1 192309Z 17014KT 39/18 A2982 RMK A01 T03920179  RH  029%=      5-min Rain = 0
KDO1 192310Z 17015G20KT 39/18 A2982 RMK A01 T03930180  RH  029%=      5-min Rain = 0
KDO1 192311Z 17016KT 39/18 A2982 RMK A01 T03920177  RH  029%=      5-min Rain = 0
KDO1 192312Z 17014KT 39/18 A2982 RMK A01 T03900177  RH  029%=      5-min Rain = 0
KDO1 192313Z 16014KT 39/18 A2982 RMK A01 T03900177  RH  029%=      5-min Rain = 0
KDO1 192314Z 15016KT 39/18 A2981 RMK A01 T03890176  RH  029%=      5-min Rain = 0
KDO1 192315Z 16015KT 39/18 A2981 RMK A01 T03890176  RH  029%=      5-min Rain = 0
KDO1 192316Z 15014KT 39/18 A2981 RMK A01 T03890176  RH  029%=      5-min Rain = 0
KDO1 192317Z 15017KT 39/18 A2981 RMK A01 T03890175  RH  029%=      5-min Rain = 0
KDO1 192318Z 16016G22KT 39/18 A2981 RMK A01 T03890175  RH  029%=      5-min Rain = 0
KDO1 192319Z 15013KT 39/18 A2981 RMK A01 T03890175  RH  029%=      5-min Rain = 0
KDO1 192320Z 15014KT 39/18 A2981 RMK A01 T03880175  RH  029%=      5-min Rain = 0
KDO1 192321Z 16013KT 39/18 A2981 RMK A01 T03880175  RH  029%=      5-min Rain = 0
KDO1 192322Z 16015KT 39/18 A2981 RMK A01 T03880175  RH  029%=      5-min Rain = 0
KDO1 192323Z 16015KT 39/18 A2981 RMK A01 T03880176  RH  029%=      5-min Rain = 0
KDO1 192324Z 17014KT 39/18 A2981 RMK A01 T03890177  RH  029%=      5-min Rain = 0
KDO1 192325Z 16016KT 39/18 A2981 RMK A01 T03890176  RH  029%=      5-min Rain = 0
KDO1 192326Z 16015KT 39/18 A2981 RMK A01 T03890176  RH  029%=      5-min Rain = 0
KDO1 192327Z 17012KT 39/18 A2981 RMK A01 T03880175  RH  029%=      5-min Rain = 0
KDO1 192328Z 17013KT 39/18 A2981 RMK A01 T03880176  RH  029%=      5-min Rain = 0
KDO1 192329Z 17011KT 39/18 A2981 RMK A01 T03890177  RH  029%=      5-min Rain = 0
KDO1 192330Z 17013KT 39/18 A2981 RMK A01 T03910178  RH  029%=      5-min Rain = 0
KDO1 192331Z 17012KT 39/18 A2981 RMK A01 T03910177  RH  029%=      5-min Rain = 0
KDO1 192332Z 18012KT 39/18 A2981 RMK A01 T03910177  RH  029%=      5-min Rain = 0
KDO1 192333Z 17013KT 39/18 A2981 RMK A01 T03910176  RH  028%=      5-min Rain = 0
KDO1 192334Z 17012KT 39/18 A2981 RMK A01 T03920177  RH  029%=      5-min Rain = 0
KDO1 192335Z 16012KT 39/18 A2981 RMK A01 T03920178  RH  029%=      5-min Rain = 0
KDO1 192336Z 17015G20KT 39/18 A2981 RMK A01 T03930178  RH  029%=      5-min Rain = 0
KDO1 192337Z 17015KT 39/18 A2981 RMK A01 T03920176  RH  028%=      5-min Rain = 0
KDO1 192338Z 16015KT 39/18 A2981 RMK A01 T03900176  RH  029%=      5-min Rain = 0
KDO1 192339Z 16014KT 39/18 A2981 RMK A01 T03890176  RH  029%=      5-min Rain = 0
KDO1 192340Z 15014KT 39/18 A2981 RMK A01 T03890176  RH  029%=      5-min Rain = 0
KDO1 192341Z 15013KT 39/18 A2981 RMK A01 T03890177  RH  029%=      5-min Rain = 0
KDO1 192342Z 16013G20KT 39/18 A2981 RMK A01 T03890177  RH  029%=      5-min Rain = 0
KDO1 192343Z 16016KT 39/17 A2981 RMK A01 T03880174  RH  029%=      5-min Rain = 0
KDO1 192344Z 16015KT 39/17 A2981 RMK A01 T03870173  RH  029%=      5-min Rain = 0
KDO1 192345Z 16016KT 39/17 A2981 RMK A01 T03870174  RH  029%=      5-min Rain = 0
KDO1 192346Z 16014KT 39/17 A2981 RMK A01 T03860174  RH  029%=      5-min Rain = 0
KDO1 192347Z 17011G17KT 39/18 A2981 RMK A01 T03860176  RH  029%=      5-min Rain = 0
KDO1 192348Z 16013KT 39/18 A2981 RMK A01 T03860175  RH  029%=      5-min Rain = 0
KDO1 192349Z 16013KT 39/18 A2981 RMK A01 T03870177  RH  029%=      5-min Rain = 0
KDO1 192350Z 15016G21KT 39/18 A2981 RMK A01 T03880177  RH  029%=      5-min Rain = 0
KDO1 192351Z 16015KT 39/18 A2981 RMK A01 T03880175  RH  029%=      5-min Rain = 0
KDO1 192352Z 15012G18KT 39/18 A2981 RMK A01 T03870175  RH  029%=      5-min Rain = 0
KDO1 192353Z 15014KT 39/17 A2981 RMK A01 T03870174  RH  029%=      5-min Rain = 0
KDO1 192354Z 16015KT 39/17 A2981 RMK A01 T03860173  RH  029%=      5-min Rain = 0
KDO1 192355Z 16017KT 39/17 A2981 RMK A01 T03850173  RH  029%=      5-min Rain = 0
KDO1 192356Z 15014KT 39/17 A2981 RMK A01 T03850172  RH  029%=      5-min Rain = 0
KDO1 192357Z 15013KT 39/17 A2981 RMK A01 T03850173  RH  029%=      5-min Rain = 0
KDO1 192358Z 16012KT 39/17 A2981 RMK A01 T03850173  RH  029%=      5-min Rain = 0
KDO1 192359Z 16012KT 39/18 A2981 RMK A01 T03850175  RH  029%=      5-min Rain = 0
KDO1 200000Z 15012KT 39/17 A2981 RMK A01 T03850174  RH  029%=      5-min Rain = 0
KDO1 200001Z 16011KT 39/18 A2981 RMK A01 T03850175  RH  029%=      5-min Rain = 0
KDO1 200002Z 15011KT 39/18 A2981 RMK A01 T03850176  RH  029%=      5-min Rain = 0
KDO1 200003Z 15013KT 39/18 A2981 RMK A01 T03860175  RH  029%=      5-min Rain = 0
KDO1 200004Z 15013G18KT 39/17 A2981 RMK A01 T03860173  RH  029%=      5-min Rain = 0
KDO1 200005Z 14014KT 39/17 A2981 RMK A01 T03860173  RH  029%=      5-min Rain = 0
KDO1 200006Z 15014KT 39/17 A2981 RMK A01 T03850173  RH  029%=      5-min Rain = 0
KDO1 200007Z 14011KT 39/17 A2981 RMK A01 T03850173  RH  029%=      5-min Rain = 0
KDO1 200008Z 14011G17KT 38/17 A2981 RMK A01 T03840174  RH  029%=      5-min Rain = 0
KDO1 200009Z 15017KT 38/17 A2981 RMK A01 T03840173  RH  029%=      5-min Rain = 0
KDO1 200010Z 16015G20KT 38/17 A2981 RMK A01 T03840172  RH  029%=      5-min Rain = 0
KDO1 200011Z 16013KT 38/17 A2981 RMK A01 T03830172  RH  029%=      5-min Rain = 0
KDO1 200012Z 15012KT 38/17 A2981 RMK A01 T03830173  RH  029%=      5-min Rain = 0
KDO1 200013Z 15016KT 38/17 A2981 RMK A01 T03830173  RH  029%=      5-min Rain = 0
KDO1 200014Z 15013G20KT 38/17 A2981 RMK A01 T03830172  RH  029%=      5-min Rain = 0
KDO1 200015Z 15017KT 38/17 A2981 RMK A01 T03830171  RH  029%=      5-min Rain = 0
KDO1 200016Z 16016KT 38/17 A2981 RMK A01 T03830170  RH  029%=      5-min Rain = 0
KDO1 200017Z 15016KT 38/17 A2981 RMK A01 T03810169  RH  029%=      5-min Rain = 0
KDO1 200018Z 15013KT 38/17 A2981 RMK A01 T03810170  RH  029%=      5-min Rain = 0
KDO1 200019Z 15014KT 38/17 A2981 RMK A01 T03810171  RH  029%=      5-min Rain = 0
KDO1 200020Z 15014KT 38/17 A2981 RMK A01 T03810171  RH  029%=      5-min Rain = 0
KDO1 200021Z 15011G16KT 38/17 A2981 RMK A01 T03810172  RH  029%=      5-min Rain = 0
KDO1 200022Z 15011KT 38/17 A2981 RMK A01 T03810172  RH  029%=      5-min Rain = 0
KDO1 200023Z 14014KT 38/17 A2981 RMK A01 T03810171  RH  029%=      5-min Rain = 0
KDO1 200024Z 15013KT 38/17 A2981 RMK A01 T03810170  RH  029%=      5-min Rain = 0
KDO1 200025Z 14015KT 38/17 A2981 RMK A01 T03810169  RH  029%=      5-min Rain = 0
KDO1 200026Z 15010KT 38/17 A2981 RMK A01 T03800170  RH  029%=      5-min Rain = 0
KDO1 200027Z 16011KT 38/17 A2981 RMK A01 T03800171  RH  029%=      5-min Rain = 0
KDO1 200028Z 16010KT 38/17 A2981 RMK A01 T03800172  RH  030%=      5-min Rain = 0
KDO1 200029Z 15013KT 38/17 A2982 RMK A01 T03800172  RH  030%=      5-min Rain = 0
KDO1 200030Z 15012KT 38/17 A2982 RMK A01 T03800172  RH  030%=      5-min Rain = 0
KDO1 200031Z 15013KT 38/17 A2982 RMK A01 T03800173  RH  030%=      5-min Rain = 0
KDO1 200032Z 16014KT 38/17 A2982 RMK A01 T03800172  RH  030%=      5-min Rain = 0
KDO1 200033Z 16012KT 38/17 A2982 RMK A01 T03790173  RH  030%=      5-min Rain = 0
KDO1 200034Z 15011KT 38/17 A2982 RMK A01 T03780174  RH  030%=      5-min Rain = 0
KDO1 200035Z 15011KT 38/18 A2982 RMK A01 T03790175  RH  030%=      5-min Rain = 0
KDO1 200036Z 15012KT 38/17 A2982 RMK A01 T03780173  RH  030%=      5-min Rain = 0
KDO1 200037Z 15011KT 38/17 A2982 RMK A01 T03790173  RH  030%=      5-min Rain = 0
KDO1 200038Z 16011KT 38/17 A2982 RMK A01 T03780174  RH  030%=      5-min Rain = 0
KDO1 200039Z 15016KT 38/17 A2982 RMK A01 T03780173  RH  030%=      5-min Rain = 0
KDO1 200040Z 16014KT 38/17 A2982 RMK A01 T03780171  RH  030%=      5-min Rain = 0
KDO1 200041Z 16012G17KT 38/17 A2982 RMK A01 T03770172  RH  030%=      5-min Rain = 0
KDO1 200042Z 16013KT 38/17 A2982 RMK A01 T03770172  RH  030%=      5-min Rain = 0
KDO1 200043Z 15011KT 38/17 A2982 RMK A01 T03770172  RH  030%=      5-min Rain = 0
KDO1 200044Z 16012KT 38/17 A2982 RMK A01 T03760172  RH  030%=      5-min Rain = 0
KDO1 200045Z 15012KT 38/17 A2982 RMK A01 T03770173  RH  030%=      5-min Rain = 0
KDO1 200046Z 15012KT 38/17 A2982 RMK A01 T03760173  RH  030%=      5-min Rain = 0
KDO1 200047Z 16012KT 38/17 A2982 RMK A01 T03760173  RH  030%=      5-min Rain = 0
KDO1 200048Z 15010KT 38/17 A2982 RMK A01 T03750174  RH  031%=      5-min Rain = 0
KDO1 200049Z 15011KT 38/18 A2982 RMK A01 T03750175  RH  031%=      5-min Rain = 0
KDO1 200050Z 15012KT 38/17 A2982 RMK A01 T03750174  RH  031%=      5-min Rain = 0
KDO1 200051Z 16013KT 37/17 A2982 RMK A01 T03740174  RH  031%=      5-min Rain = 0
KDO1 200052Z 15009KT 37/17 A2982 RMK A01 T03740174  RH  031%=      5-min Rain = 0
KDO1 200053Z 15012KT 37/18 A2982 RMK A01 T03740175  RH  031%=      5-min Rain = 0
KDO1 200054Z 16014G19KT 37/17 A2982 RMK A01 T03730174  RH  031%=      5-min Rain = 0
KDO1 200055Z 15013KT 37/17 A2982 RMK A01 T03730173  RH  031%=      5-min Rain = 0
KDO1 200056Z 15010KT 37/17 A2982 RMK A01 T03730173  RH  031%=      5-min Rain = 0
KDO1 200057Z 15015KT 37/17 A2982 RMK A01 T03720174  RH  031%=      5-min Rain = 0
KDO1 200058Z 15011KT 37/17 A2982 RMK A01 T03720173  RH  031%=      5-min Rain = 0
KDO1 200059Z 15013KT 37/17 A2982 RMK A01 T03710174  RH  031%=      5-min Rain = 0
KDO1 200100Z 15013KT 37/17 A2982 RMK A01 T03710173  RH  031%=      5-min Rain = 0
KDO1 200101Z 15014KT 37/17 A2982 RMK A01 T03700173  RH  031%=      5-min Rain = 0
KDO1 200102Z 15011KT 37/17 A2982 RMK A01 T03700174  RH  032%=      5-min Rain = 0
KDO1 200103Z 15014KT 37/17 A2982 RMK A01 T03700174  RH  032%=      5-min Rain = 0
KDO1 200104Z 15012KT 37/17 A2982 RMK A01 T03690174  RH  032%=      5-min Rain = 0
KDO1 200105Z 15011KT 37/17 A2983 RMK A01 T03690174  RH  032%=      5-min Rain = 0
KDO1 200106Z 15011KT 37/17 A2983 RMK A01 T03680174  RH  032%=      5-min Rain = 0
KDO1 200107Z 15014KT 37/17 A2982 RMK A01 T03680173  RH  032%=      5-min Rain = 0
KDO1 200108Z 15012KT 37/17 A2983 RMK A01 T03680173  RH  032%=      5-min Rain = 0
KDO1 200109Z 15011KT 37/17 A2983 RMK A01 T03680174  RH  032%=      5-min Rain = 0
KDO1 200110Z 15011KT 37/17 A2983 RMK A01 T03670174  RH  032%=      5-min Rain = 0
KDO1 200111Z 15010KT 37/17 A2982 RMK A01 T03660174  RH  032%=      5-min Rain = 0
KDO1 200112Z 15011KT 37/17 A2982 RMK A01 T03660174  RH  032%=      5-min Rain = 0
KDO1 200113Z 15009KT 37/17 A2982 RMK A01 T03650174  RH  033%=      5-min Rain = 0
KDO1 200114Z 15011KT 36/18 A2982 RMK A01 T03640175  RH  033%=      5-min Rain = 0
KDO1 200115Z 15010G15KT 36/17 A2982 RMK A01 T03640174  RH  033%=      5-min Rain = 0
KDO1 200116Z 16011KT 36/17 A2982 RMK A01 T03630174  RH  033%=      5-min Rain = 0
KDO1 200117Z 15012KT 36/17 A2982 RMK A01 T03620174  RH  033%=      5-min Rain = 0
KDO1 200118Z 15010G15KT 36/17 A2982 RMK A01 T03610174  RH  033%=      5-min Rain = 0
KDO1 200119Z 16011G16KT 36/17 A2982 RMK A01 T03610174  RH  033%=      5-min Rain = 0
KDO1 200120Z 15011KT 36/17 A2983 RMK A01 T03600174  RH  033%=      5-min Rain = 0
KDO1 200121Z 15010KT 36/17 A2983 RMK A01 T03600174  RH  033%=      5-min Rain = 0
KDO1 200122Z 15011KT 36/17 A2983 RMK A01 T03590174  RH  034%=      5-min Rain = 0
KDO1 200123Z 15010KT 36/17 A2983 RMK A01 T03590174  RH  034%=      5-min Rain = 0
KDO1 200124Z 15010KT 36/17 A2983 RMK A01 T03580174  RH  034%=      5-min Rain = 0
KDO1 200125Z 15009KT 36/17 A2983 RMK A01 T03580174  RH  034%=      5-min Rain = 0
KDO1 200126Z 15010KT 36/17 A2983 RMK A01 T03570174  RH  034%=      5-min Rain = 0
KDO1 200127Z 15007KT 36/17 A2983 RMK A01 T03560174  RH  034%=      5-min Rain = 0
KDO1 200128Z 15009KT 36/18 A2983 RMK A01 T03560175  RH  034%=      5-min Rain = 0
KDO1 200129Z 14008KT 36/18 A2983 RMK A01 T03550175  RH  035%=      5-min Rain = 0
KDO1 200130Z 14008KT 36/18 A2983 RMK A01 T03550175  RH  035%=      5-min Rain = 0
KDO1 200131Z 15009KT 35/18 A2983 RMK A01 T03540176  RH  035%=      5-min Rain = 0
KDO1 200132Z 14008KT 35/18 A2983 RMK A01 T03530175  RH  035%=      5-min Rain = 0
KDO1 200133Z 14008KT 35/18 A2983 RMK A01 T03530176  RH  035%=      5-min Rain = 0
KDO1 200134Z 14008KT 35/18 A2983 RMK A01 T03520176  RH  035%=      5-min Rain = 0
KDO1 200135Z 14009KT 35/18 A2983 RMK A01 T03510175  RH  035%=      5-min Rain = 0
KDO1 200136Z 14008KT 35/18 A2983 RMK A01 T03510176  RH  035%=      5-min Rain = 0
KDO1 200137Z 14007KT 35/18 A2983 RMK A01 T03500176  RH  036%=      5-min Rain = 0
KDO1 200138Z 14007KT 35/18 A2983 RMK A01 T03490176  RH  036%=      5-min Rain = 0
KDO1 200139Z 13007KT 35/18 A2983 RMK A01 T03480176  RH  036%=      5-min Rain = 0
KDO1 200140Z 13010KT 35/18 A2983 RMK A01 T03480177  RH  036%=      5-min Rain = 0
KDO1 200141Z 13008KT 35/18 A2983 RMK A01 T03470177  RH  037%=      5-min Rain = 0
KDO1 200142Z 14007KT 35/18 A2983 RMK A01 T03460177  RH  037%=      5-min Rain = 0
KDO1 200143Z 14007KT 35/18 A2983 RMK A01 T03450178  RH  037%=      5-min Rain = 0
KDO1 200144Z 13006KT 34/18 A2983 RMK A01 T03440178  RH  037%=      5-min Rain = 0
KDO1 200145Z 13007KT 34/18 A2983 RMK A01 T03420178  RH  038%=      5-min Rain = 0
KDO1 200146Z 14006G11KT 34/18 A2983 RMK A01 T03420179  RH  038%=      5-min Rain = 0
KDO1 200147Z 14010KT 34/18 A2983 RMK A01 T03400179  RH  038%=      5-min Rain = 0
KDO1 200148Z 14009KT 34/18 A2983 RMK A01 T03400180  RH  039%=      5-min Rain = 0
KDO1 200149Z 14010KT 34/18 A2983 RMK A01 T03400181  RH  039%=      5-min Rain = 0
KDO1 200150Z 14010KT 34/18 A2983 RMK A01 T03410182  RH  039%=      5-min Rain = 0
KDO1 200151Z 14011G16KT 34/18 A2983 RMK A01 T03410182  RH  039%=      5-min Rain = 0
KDO1 200152Z 15011KT 34/18 A2983 RMK A01 T03410183  RH  039%=      5-min Rain = 0
KDO1 200153Z 14011KT 34/18 A2984 RMK A01 T03410183  RH  039%=      5-min Rain = 0
KDO1 200154Z 14010KT 34/18 A2984 RMK A01 T03410183  RH  039%=      5-min Rain = 0
KDO1 200155Z 13012KT 34/18 A2984 RMK A01 T03420184  RH  039%=      5-min Rain = 0
KDO1 200156Z 14012KT 34/18 A2984 RMK A01 T03410183  RH  039%=      5-min Rain = 0
KDO1 200157Z 14011KT 34/18 A2984 RMK A01 T03410183  RH  039%=      5-min Rain = 0
KDO1 200158Z 14011KT 34/18 A2984 RMK A01 T03410183  RH  039%=      5-min Rain = 0
KDO1 200159Z 14010KT 34/18 A2984 RMK A01 T03410184  RH  039%=      5-min Rain = 0
KDO1 200200Z 14012KT 34/18 A2984 RMK A01 T03400184  RH  040%=      5-min Rain = 0
KDO1 200201Z 14011G16KT 34/18 A2984 RMK A01 T03400183  RH  040%=      5-min Rain = 0
KDO1 200202Z 14014KT 34/18 A2984 RMK A01 T03400183  RH  039%=      5-min Rain = 0
KDO1 200203Z 14011KT 34/18 A2984 RMK A01 T03400183  RH  039%=      5-min Rain = 0
KDO1 200204Z 14012G17KT 34/18 A2984 RMK A01 T03400183  RH  039%=      5-min Rain = 0
KDO1 200205Z 14014KT 34/18 A2984 RMK A01 T03410183  RH  039%=      5-min Rain = 0
KDO1 200206Z 14011KT 34/18 A2984 RMK A01 T03400183  RH  039%=      5-min Rain = 0
KDO1 200207Z 14012KT 34/18 A2984 RMK A01 T03400183  RH  039%=      5-min Rain = 0
KDO1 200208Z 14012KT 34/18 A2984 RMK A01 T03400183  RH  039%=      5-min Rain = 0
KDO1 200209Z 14011KT 34/18 A2984 RMK A01 T03390182  RH  039%=      5-min Rain = 0
KDO1 200210Z 14012KT 34/18 A2984 RMK A01 T03390182  RH  039%=      5-min Rain = 0
KDO1 200211Z 14014KT 34/18 A2984 RMK A01 T03390182  RH  039%=      5-min Rain = 0
KDO1 200212Z 14012KT 34/18 A2984 RMK A01 T03390182  RH  039%=      5-min Rain = 0
KDO1 200213Z 14010KT 34/18 A2984 RMK A01 T03390183  RH  040%=      5-min Rain = 0
KDO1 200214Z 14011KT 34/18 A2984 RMK A01 T03380182  RH  040%=      5-min Rain = 0
KDO1 200215Z 14010G17KT 34/18 A2984 RMK A01 T03380182  RH  040%=      5-min Rain = 0
KDO1 200216Z 14011KT 34/18 A2984 RMK A01 T03370182  RH  040%=      5-min Rain = 0
KDO1 200217Z 14011KT 34/18 A2984 RMK A01 T03370182  RH  040%=      5-min Rain = 0
KDO1 200218Z 14012KT 34/18 A2984 RMK A01 T03370182  RH  040%=      5-min Rain = 0
KDO1 200219Z 14013KT 34/18 A2984 RMK A01 T03360182  RH  040%=      5-min Rain = 0
KDO1 200220Z 14011KT 34/18 A2984 RMK A01 T03360182  RH  040%=      5-min Rain = 0
KDO1 200221Z 14013KT 34/18 A2984 RMK A01 T03360182  RH  040%=      5-min Rain = 0
KDO1 200222Z 14010KT 34/18 A2984 RMK A01 T03360182  RH  040%=      5-min Rain = 0
KDO1 200223Z 14009KT 34/18 A2984 RMK A01 T03360182  RH  040%=      5-min Rain = 0
KDO1 200224Z 14012KT 34/18 A2984 RMK A01 T03360182  RH  040%=      5-min Rain = 0
KDO1 200225Z 14012KT 34/18 A2984 RMK A01 T03350182  RH  040%=      5-min Rain = 0
KDO1 200226Z 14012KT 34/18 A2984 RMK A01 T03350181  RH  040%=      5-min Rain = 0
KDO1 200227Z 14011G16KT 34/18 A2984 RMK A01 T03350182  RH  040%=      5-min Rain = 0
KDO1 200228Z 14011KT 33/18 A2984 RMK A01 T03340181  RH  040%=      5-min Rain = 0
KDO1 200229Z 14012KT 34/18 A2984 RMK A01 T03350182  RH  040%=      5-min Rain = 0
KDO1 200230Z 14013KT 33/18 A2984 RMK A01 T03340182  RH  040%=      5-min Rain = 0
KDO1 200231Z 14011KT 33/18 A2984 RMK A01 T03340181  RH  040%=      5-min Rain = 0
KDO1 200232Z 14010KT 33/18 A2984 RMK A01 T03340181  RH  040%=      5-min Rain = 0
KDO1 200233Z 14014G20KT 33/18 A2984 RMK A01 T03340182  RH  041%=      5-min Rain = 0
KDO1 200234Z 14013KT 33/18 A2984 RMK A01 T03330181  RH  041%=      5-min Rain = 0
KDO1 200235Z 14011KT 33/18 A2984 RMK A01 T03330181  RH  041%=      5-min Rain = 0
KDO1 200236Z 14013KT 33/18 A2985 RMK A01 T03330181  RH  041%=      5-min Rain = 0
KDO1 200237Z 14010KT 33/18 A2985 RMK A01 T03330182  RH  041%=      5-min Rain = 0
KDO1 200238Z 14012KT 33/18 A2985 RMK A01 T03330181  RH  041%=      5-min Rain = 0
KDO1 200239Z 14011KT 33/18 A2985 RMK A01 T03330182  RH  041%=      5-min Rain = 0
KDO1 200240Z 14010KT 33/18 A2985 RMK A01 T03320181  RH  041%=      5-min Rain = 0
KDO1 200241Z 14011KT 33/18 A2985 RMK A01 T03320181  RH  041%=      5-min Rain = 0
KDO1 200242Z 14013KT 33/18 A2985 RMK A01 T03310181  RH  041%=      5-min Rain = 0
KDO1 200243Z 14011KT 33/18 A2985 RMK A01 T03310182  RH  041%=      5-min Rain = 0
KDO1 200244Z 14013KT 33/18 A2985 RMK A01 T03300181  RH  041%=      5-min Rain = 0
KDO1 200245Z 14012KT 33/18 A2985 RMK A01 T03300181  RH  041%=      5-min Rain = 0
KDO1 200246Z 14012KT 33/18 A2985 RMK A01 T03300181  RH  041%=      5-min Rain = 0
KDO1 200247Z 14013KT 33/18 A2985 RMK A01 T03300181  RH  041%=      5-min Rain = 0
KDO1 200248Z 14013KT 33/18 A2985 RMK A01 T03290181  RH  041%=      5-min Rain = 0
KDO1 200249Z 15013G19KT 33/18 A2985 RMK A01 T03290181  RH  041%=      5-min Rain = 0
KDO1 200250Z 14011G16KT 33/18 A2985 RMK A01 T03290181  RH  041%=      5-min Rain = 0
KDO1 200251Z 14011KT 33/18 A2985 RMK A01 T03290181  RH  042%=      5-min Rain = 0
KDO1 200252Z 14013KT 33/18 A2985 RMK A01 T03280181  RH  042%=      5-min Rain = 0
KDO1 200253Z 14011KT 33/18 A2985 RMK A01 T03280181  RH  042%=      5-min Rain = 0
KDO1 200254Z 14011KT 33/18 A2985 RMK A01 T03280181  RH  042%=      5-min Rain = 0
KDO1 200255Z 14010KT 33/18 A2985 RMK A01 T03270181  RH  042%=      5-min Rain = 0
KDO1 200256Z 14011KT 33/18 A2985 RMK A01 T03270181  RH  042%=      5-min Rain = 0
KDO1 200257Z 14012KT 33/18 A2985 RMK A01 T03260181  RH  042%=      5-min Rain = 0
KDO1 200258Z 14011KT 33/18 A2985 RMK A01 T03260181  RH  042%=      5-min Rain = 0
KDO1 200259Z 14013KT 33/18 A2985 RMK A01 T03260181  RH  042%=      5-min Rain = 0
KDO1 200300Z 14011G16KT 33/18 A2985 RMK A01 T03260181  RH  042%=      5-min Rain = 0
KDO1 200301Z 14012KT 33/18 A2985 RMK A01 T03260181  RH  042%=      5-min Rain = 0
KDO1 200302Z 14010KT 33/18 A2985 RMK A01 T03260181  RH  042%=      5-min Rain = 0
KDO1 200303Z 15011KT 33/18 A2985 RMK A01 T03260181  RH  042%=      5-min Rain = 0
KDO1 200304Z 13011KT 33/18 A2985 RMK A01 T03250181  RH  042%=      5-min Rain = 0
KDO1 200305Z 14010G15KT 33/18 A2985 RMK A01 T03250180  RH  042%=      5-min Rain = 0
KDO1 200306Z 14011KT 32/18 A2985 RMK A01 T03240181  RH  042%=      5-min Rain = 0
KDO1 200307Z 14010G15KT 32/18 A2986 RMK A01 T03240181  RH  043%=      5-min Rain = 0
KDO1 200308Z 14010KT 32/18 A2986 RMK A01 T03240181  RH  043%=      5-min Rain = 0
KDO1 200309Z 13008KT 32/18 A2986 RMK A01 T03230181  RH  043%=      5-min Rain = 0
KDO1 200310Z 12007KT 32/18 A2986 RMK A01 T03220181  RH  043%=      5-min Rain = 0
KDO1 200311Z 12007KT 32/18 A2986 RMK A01 T03210181  RH  043%=      5-min Rain = 0
KDO1 200312Z 13006KT 32/18 A2986 RMK A01 T03190181  RH  044%=      5-min Rain = 0
KDO1 200313Z 13007KT 32/18 A2986 RMK A01 T03180181  RH  044%=      5-min Rain = 0
KDO1 200314Z 12008KT 32/18 A2986 RMK A01 T03170182  RH  045%=      5-min Rain = 0
KDO1 200315Z 13009KT 32/18 A2986 RMK A01 T03160182  RH  045%=      5-min Rain = 0
KDO1 200316Z 13009KT 32/18 A2986 RMK A01 T03160183  RH  045%=      5-min Rain = 0
KDO1 200317Z 13009KT 32/18 A2986 RMK A01 T03150183  RH  045%=      5-min Rain = 0
KDO1 200318Z 13011KT 32/18 A2986 RMK A01 T03150183  RH  046%=      5-min Rain = 0
KDO1 200319Z 14010KT 31/18 A2986 RMK A01 T03140183  RH  046%=      5-min Rain = 0
KDO1 200320Z 13008KT 31/18 A2986 RMK A01 T03140183  RH  046%=      5-min Rain = 0
KDO1 200321Z 13007KT 31/18 A2986 RMK A01 T03140184  RH  046%=      5-min Rain = 0
KDO1 200322Z 13009KT 31/18 A2986 RMK A01 T03130184  RH  046%=      5-min Rain = 0
KDO1 200323Z 13009KT 31/18 A2986 RMK A01 T03130184  RH  046%=      5-min Rain = 0
KDO1 200324Z 13009KT 31/18 A2987 RMK A01 T03130184  RH  046%=      5-min Rain = 0
KDO1 200325Z 13008KT 31/18 A2987 RMK A01 T03120184  RH  047%=      5-min Rain = 0
KDO1 200326Z 13007KT 31/19 A2987 RMK A01 T03120185  RH  047%=      5-min Rain = 0
KDO1 200327Z 13008KT 31/19 A2987 RMK A01 T03110185  RH  047%=      5-min Rain = 0
KDO1 200328Z 13008KT 31/19 A2987 RMK A01 T03110185  RH  047%=      5-min Rain = 0
KDO1 200329Z 14009KT 31/19 A2987 RMK A01 T03110185  RH  047%=      5-min Rain = 0
KDO1 200330Z 13006KT 31/19 A2987 RMK A01 T03110185  RH  047%=      5-min Rain = 0
KDO1 200331Z 13008KT 31/19 A2987 RMK A01 T03100185  RH  047%=      5-min Rain = 0
KDO1 200332Z 14007KT 31/19 A2987 RMK A01 T03090185  RH  048%=      5-min Rain = 0
KDO1 200333Z 14008KT 31/19 A2987 RMK A01 T03090186  RH  048%=      5-min Rain = 0
KDO1 200334Z 13008KT 31/19 A2987 RMK A01 T03090185  RH  048%=      5-min Rain = 0
KDO1 200335Z 13008KT 31/19 A2987 RMK A01 T03090186  RH  048%=      5-min Rain = 0
KDO1 200336Z 14009KT 31/19 A2987 RMK A01 T03090186  RH  048%=      5-min Rain = 0
KDO1 200337Z 13007KT 31/19 A2987 RMK A01 T03090186  RH  048%=      5-min Rain = 0
KDO1 200338Z 13007KT 31/19 A2987 RMK A01 T03090186  RH  048%=      5-min Rain = 0
KDO1 200339Z 13006KT 31/19 A2987 RMK A01 T03080186  RH  048%=      5-min Rain = 0
KDO1 200340Z 14008KT 31/19 A2987 RMK A01 T03080186  RH  048%=      5-min Rain = 0
KDO1 200341Z 14007KT 31/19 A2987 RMK A01 T03070186  RH  048%=      5-min Rain = 0
KDO1 200342Z 14007KT 31/19 A2987 RMK A01 T03060186  RH  049%=      5-min Rain = 0
KDO1 200343Z 14007KT 31/19 A2987 RMK A01 T03060186  RH  049%=      5-min Rain = 0
KDO1 200344Z 13008KT 31/19 A2987 RMK A01 T03060186  RH  049%=      5-min Rain = 0
KDO1 200345Z 14008KT 31/19 A2987 RMK A01 T03050186  RH  049%=      5-min Rain = 0
KDO1 200346Z 14007KT 31/19 A2987 RMK A01 T03060186  RH  049%=      5-min Rain = 0
KDO1 200347Z 14008KT 31/19 A2987 RMK A01 T03060186  RH  049%=      5-min Rain = 0
KDO1 200348Z 14010KT 31/19 A2987 RMK A01 T03060186  RH  049%=      5-min Rain = 0
KDO1 200349Z 14010KT 31/19 A2987 RMK A01 T03060186  RH  049%=      5-min Rain = 0
KDO1 200350Z 14009KT 31/19 A2987 RMK A01 T03060186  RH  049%=      5-min Rain = 0
KDO1 200351Z 14009KT 31/19 A2987 RMK A01 T03060185  RH  048%=      5-min Rain = 0
KDO1 200352Z 13010KT 31/19 A2987 RMK A01 T03070186  RH  048%=      5-min Rain = 0
KDO1 200353Z 14010KT 31/19 A2987 RMK A01 T03060185  RH  048%=      5-min Rain = 0
KDO1 200354Z 14011KT 31/19 A2988 RMK A01 T03070185  RH  048%=      5-min Rain = 0
KDO1 200355Z 14011KT 31/19 A2988 RMK A01 T03070185  RH  048%=      5-min Rain = 0
KDO1 200356Z 14010KT 31/19 A2988 RMK A01 T03070185  RH  048%=      5-min Rain = 0
KDO1 200357Z 14011KT 31/18 A2988 RMK A01 T03080184  RH  048%=      5-min Rain = 0
KDO1 200358Z 14010KT 31/18 A2988 RMK A01 T03080184  RH  048%=      5-min Rain = 0
KDO1 200359Z 14010KT 31/18 A2988 RMK A01 T03080184  RH  048%=      5-min Rain = 0
KDO1 200400Z 15008KT 31/18 A2988 RMK A01 T03080184  RH  048%=      5-min Rain = 0
KDO1 200401Z 15009KT 31/19 A2988 RMK A01 T03080185  RH  048%=      5-min Rain = 0
KDO1 200402Z 14009KT 31/18 A2988 RMK A01 T03070184  RH  048%=      5-min Rain = 0
KDO1 200403Z 15010KT 31/18 A2988 RMK A01 T03070184  RH  048%=      5-min Rain = 0
KDO1 200404Z 14008KT 31/18 A2988 RMK A01 T03070184  RH  048%=      5-min Rain = 0
KDO1 200405Z 14009KT 31/18 A2988 RMK A01 T03070184  RH  048%=      5-min Rain = 0
KDO1 200406Z 14009KT 31/18 A2988 RMK A01 T03070184  RH  048%=      5-min Rain = 0
KDO1 200407Z 14007KT 31/18 A2988 RMK A01 T03060183  RH  048%=      5-min Rain = 0
KDO1 200408Z 15009KT 31/18 A2988 RMK A01 T03060183  RH  048%=      5-min Rain = 0
KDO1 200409Z 14010KT 31/18 A2988 RMK A01 T03050183  RH  048%=      5-min Rain = 0
KDO1 200410Z 14008KT 31/18 A2988 RMK A01 T03050183  RH  048%=      5-min Rain = 0
KDO1 200411Z 14010KT 31/18 A2988 RMK A01 T03050183  RH  048%=      5-min Rain = 0
KDO1 200412Z 14008G13KT 31/18 A2988 RMK A01 T03050183  RH  048%=      5-min Rain = 0
KDO1 200413Z 14010KT 31/18 A2988 RMK A01 T03050183  RH  048%=      5-min Rain = 0
KDO1 200414Z 14009KT 31/18 A2988 RMK A01 T03050183  RH  048%=      5-min Rain = 0
KDO1 200415Z 14010KT 31/18 A2988 RMK A01 T03050183  RH  048%=      5-min Rain = 0
KDO1 200416Z 14008KT 31/18 A2988 RMK A01 T03050183  RH  048%=      5-min Rain = 0
KDO1 200417Z 15007KT 31/18 A2988 RMK A01 T03050183  RH  048%=      5-min Rain = 0
KDO1 200418Z 14009KT 30/18 A2988 RMK A01 T03040182  RH  048%=      5-min Rain = 0
KDO1 200419Z 15009KT 30/18 A2988 RMK A01 T03040183  RH  048%=      5-min Rain = 0
KDO1 200420Z 14009KT 30/18 A2988 RMK A01 T03040182  RH  048%=      5-min Rain = 0
KDO1 200421Z 14010KT 30/18 A2988 RMK A01 T03030182  RH  048%=      5-min Rain = 0
KDO1 200422Z 15010KT 30/18 A2988 RMK A01 T03040182  RH  048%=      5-min Rain = 0
KDO1 200423Z 15010KT 30/18 A2988 RMK A01 T03040182  RH  048%=      5-min Rain = 0
KDO1 200424Z 15009KT 30/18 A2988 RMK A01 T03040181  RH  048%=      5-min Rain = 0
KDO1 200425Z 15010KT 30/18 A2988 RMK A01 T03040181  RH  048%=      5-min Rain = 0
KDO1 200426Z 15010G16KT 30/18 A2988 RMK A01 T03030180  RH  048%=      5-min Rain = 0
KDO1 200427Z 15010KT 30/18 A2988 RMK A01 T03040181  RH  048%=      5-min Rain = 0
KDO1 200428Z 15010KT 30/18 A2988 RMK A01 T03040180  RH  048%=      5-min Rain = 0
KDO1 200429Z 15009KT 30/18 A2988 RMK A01 T03040180  RH  048%=      5-min Rain = 0
KDO1 200430Z 15009KT 30/18 A2988 RMK A01 T03040180  RH  048%=      5-min Rain = 0
KDO1 200431Z 15010KT 30/18 A2988 RMK A01 T03040180  RH  048%=      5-min Rain = 0
KDO1 200432Z 16009KT 30/18 A2988 RMK A01 T03030180  RH  047%=      5-min Rain = 0
KDO1 200433Z 14009KT 30/18 A2988 RMK A01 T03040180  RH  047%=      5-min Rain = 0
KDO1 200434Z 15010KT 30/18 A2988 RMK A01 T03030179  RH  047%=      5-min Rain = 0
KDO1 200435Z 15008KT 30/18 A2988 RMK A01 T03030179  RH  047%=      5-min Rain = 0
KDO1 200436Z 15008KT 30/18 A2988 RMK A01 T03030179  RH  047%=      5-min Rain = 0
KDO1 200437Z 15011KT 30/18 A2988 RMK A01 T03020179  RH  048%=      5-min Rain = 0
KDO1 200438Z 15011KT 30/18 A2988 RMK A01 T03020179  RH  048%=      5-min Rain = 0
KDO1 200439Z 15010KT 30/18 A2988 RMK A01 T03020178  RH  047%=      5-min Rain = 0
KDO1 200440Z 15010KT 30/18 A2988 RMK A01 T03020178  RH  047%=      5-min Rain = 0
KDO1 200441Z 15008KT 30/18 A2988 RMK A01 T03020178  RH  047%=      5-min Rain = 0
KDO1 200442Z 15010KT 30/18 A2988 RMK A01 T03020178  RH  047%=      5-min Rain = 0
KDO1 200443Z 15010KT 30/18 A2988 RMK A01 T03020178  RH  047%=      5-min Rain = 0
KDO1 200444Z 16009KT 30/18 A2988 RMK A01 T03020178  RH  047%=      5-min Rain = 0
KDO1 200445Z 15010KT 30/18 A2988 RMK A01 T03010177  RH  047%=      5-min Rain = 0
KDO1 200446Z 15009KT 30/18 A2988 RMK A01 T03010178  RH  047%=      5-min Rain = 0
KDO1 200447Z 15009KT 30/18 A2988 RMK A01 T03010177  RH  047%=      5-min Rain = 0
KDO1 200448Z 15008G13KT 30/18 A2988 RMK A01 T03000177  RH  048%=      5-min Rain = 0
KDO1 200449Z 16008G13KT 30/18 A2988 RMK A01 T03000177  RH  048%=      5-min Rain = 0
KDO1 200450Z 16010KT 30/18 A2988 RMK A01 T03000177  RH  048%=      5-min Rain = 0
KDO1 200451Z 15009KT 30/18 A2988 RMK A01 T03000177  RH  048%=      5-min Rain = 0
KDO1 200452Z 15009KT 30/18 A2988 RMK A01 T02990176  RH  048%=      5-min Rain = 0
KDO1 200453Z 16009KT 30/18 A2988 RMK A01 T02990176  RH  048%=      5-min Rain = 0
KDO1 200454Z 16009KT 30/18 A2988 RMK A01 T02990175  RH  047%=      5-min Rain = 0
KDO1 200455Z 16010KT 30/18 A2988 RMK A01 T02990175  RH  047%=      5-min Rain = 0
KDO1 200456Z 15009KT 30/18 A2988 RMK A01 T02990175  RH  047%=      5-min Rain = 0
KDO1 200457Z 16008KT 30/18 A2988 RMK A01 T02990175  RH  047%=      5-min Rain = 0
KDO1 200458Z 15010KT 30/18 A2988 RMK A01 T02990175  RH  047%=      5-min Rain = 0
KDO1 200459Z 16011G16KT 30/17 A2988 RMK A01 T02990174  RH  047%=      5-min Rain = 0

Page generated in 0.0706 seconds.